<?xml version="1.0" encoding="UTF-8" standalone="no" ?>
<gpx xmlns="http://www.topografix.com/GPX/1/1" xmlns:xsi="http://www.w3.org/2001/XMLSchema-instance" xsi:schemaLocation="http://www.topografix.com/GPX/1/1 http://www.topografix.com/GPX/1/1/gpx.xsd" version="1.1" creator="VisuGPX - https://www.visugpx.com">
  <metadata>
    <name>Passerelle du Drac depuis Savel</name>
    <desc><![CDATA[Départ Mayres Savel
N44°
Carte IGN 3336 OT La Mure Valbonnais
Passerelle du Drac depuis Mayres Savel
Dénivelé pur 190 m
Nénivelé cumulé positif 310 m
Distance 7100 m
Temps 3h00 env.]]></desc>
  </metadata>
  <trk>
    <name><![CDATA[2022-05-08-01]]></name>
    <trkseg>
      <trkpt lat="44.87283" lon="5.70105">
        <ele>528.3</ele>
        <time>2022-05-08T09:03:00Z</time>
      </trkpt>
      <trkpt lat="44.87283" lon="5.70105">
        <ele>545</ele>
        <time>2022-05-08T09:03:04Z</time>
      </trkpt>
      <trkpt lat="44.87291" lon="5.70098">
        <ele>572.2</ele>
        <time>2022-05-08T09:04:30Z</time>
      </trkpt>
      <trkpt lat="44.87281" lon="5.70101">
        <ele>577.7</ele>
        <time>2022-05-08T09:07:05Z</time>
      </trkpt>
      <trkpt lat="44.87274" lon="5.70092">
        <ele>577.7</ele>
        <time>2022-05-08T09:07:16Z</time>
      </trkpt>
      <trkpt lat="44.87274" lon="5.70079">
        <ele>577.3</ele>
        <time>2022-05-08T09:07:28Z</time>
      </trkpt>
      <trkpt lat="44.87278" lon="5.70066">
        <ele>577.2</ele>
        <time>2022-05-08T09:07:42Z</time>
      </trkpt>
      <trkpt lat="44.87287" lon="5.70061">
        <ele>576.7</ele>
        <time>2022-05-08T09:07:50Z</time>
      </trkpt>
      <trkpt lat="44.87296" lon="5.70057">
        <ele>575.9</ele>
        <time>2022-05-08T09:08:02Z</time>
      </trkpt>
      <trkpt lat="44.87306" lon="5.70055">
        <ele>575</ele>
        <time>2022-05-08T09:08:51Z</time>
      </trkpt>
      <trkpt lat="44.87315" lon="5.70051">
        <ele>574.1</ele>
        <time>2022-05-08T09:09:01Z</time>
      </trkpt>
      <trkpt lat="44.87325" lon="5.70048">
        <ele>573.6</ele>
        <time>2022-05-08T09:09:11Z</time>
      </trkpt>
      <trkpt lat="44.87334" lon="5.70046">
        <ele>572.8</ele>
        <time>2022-05-08T09:09:21Z</time>
      </trkpt>
      <trkpt lat="44.87343" lon="5.70044">
        <ele>572.6</ele>
        <time>2022-05-08T09:09:31Z</time>
      </trkpt>
      <trkpt lat="44.87353" lon="5.7004">
        <ele>571.5</ele>
        <time>2022-05-08T09:09:42Z</time>
      </trkpt>
      <trkpt lat="44.87343" lon="5.7004">
        <ele>570.2</ele>
        <time>2022-05-08T09:09:55Z</time>
      </trkpt>
      <trkpt lat="44.87334" lon="5.70042">
        <ele>569.8</ele>
        <time>2022-05-08T09:10:04Z</time>
      </trkpt>
      <trkpt lat="44.87324" lon="5.70043">
        <ele>569.3</ele>
        <time>2022-05-08T09:10:14Z</time>
      </trkpt>
      <trkpt lat="44.87315" lon="5.70043">
        <ele>568.3</ele>
        <time>2022-05-08T09:10:24Z</time>
      </trkpt>
      <trkpt lat="44.87305" lon="5.70043">
        <ele>567.7</ele>
        <time>2022-05-08T09:10:34Z</time>
      </trkpt>
      <trkpt lat="44.87296" lon="5.70042">
        <ele>567.2</ele>
        <time>2022-05-08T09:10:43Z</time>
      </trkpt>
      <trkpt lat="44.87287" lon="5.70042">
        <ele>566.5</ele>
        <time>2022-05-08T09:10:53Z</time>
      </trkpt>
      <trkpt lat="44.87277" lon="5.70043">
        <ele>566.2</ele>
        <time>2022-05-08T09:11:03Z</time>
      </trkpt>
      <trkpt lat="44.87267" lon="5.70044">
        <ele>565.6</ele>
        <time>2022-05-08T09:11:13Z</time>
      </trkpt>
      <trkpt lat="44.87257" lon="5.70045">
        <ele>564.7</ele>
        <time>2022-05-08T09:11:23Z</time>
      </trkpt>
      <trkpt lat="44.87248" lon="5.70048">
        <ele>564.3</ele>
        <time>2022-05-08T09:11:32Z</time>
      </trkpt>
      <trkpt lat="44.87239" lon="5.70049">
        <ele>563.8</ele>
        <time>2022-05-08T09:11:52Z</time>
      </trkpt>
      <trkpt lat="44.8723" lon="5.7005">
        <ele>563.5</ele>
        <time>2022-05-08T09:12:02Z</time>
      </trkpt>
      <trkpt lat="44.87221" lon="5.70051">
        <ele>563.2</ele>
        <time>2022-05-08T09:12:12Z</time>
      </trkpt>
      <trkpt lat="44.87211" lon="5.70051">
        <ele>563.1</ele>
        <time>2022-05-08T09:12:22Z</time>
      </trkpt>
      <trkpt lat="44.87203" lon="5.70057">
        <ele>563.1</ele>
        <time>2022-05-08T09:12:30Z</time>
      </trkpt>
      <trkpt lat="44.872" lon="5.7007">
        <ele>563.1</ele>
        <time>2022-05-08T09:12:42Z</time>
      </trkpt>
      <trkpt lat="44.87206" lon="5.7008">
        <ele>563.7</ele>
        <time>2022-05-08T09:12:53Z</time>
      </trkpt>
      <trkpt lat="44.87212" lon="5.7009">
        <ele>564</ele>
        <time>2022-05-08T09:13:04Z</time>
      </trkpt>
      <trkpt lat="44.87218" lon="5.70101">
        <ele>563.3</ele>
        <time>2022-05-08T09:13:15Z</time>
      </trkpt>
      <trkpt lat="44.87223" lon="5.70112">
        <ele>563.3</ele>
        <time>2022-05-08T09:13:25Z</time>
      </trkpt>
      <trkpt lat="44.87228" lon="5.70124">
        <ele>563.8</ele>
        <time>2022-05-08T09:13:35Z</time>
      </trkpt>
      <trkpt lat="44.87233" lon="5.70135">
        <ele>563.6</ele>
        <time>2022-05-08T09:13:45Z</time>
      </trkpt>
      <trkpt lat="44.87237" lon="5.70148">
        <ele>563.8</ele>
        <time>2022-05-08T09:13:56Z</time>
      </trkpt>
      <trkpt lat="44.87242" lon="5.70159">
        <ele>563.8</ele>
        <time>2022-05-08T09:14:06Z</time>
      </trkpt>
      <trkpt lat="44.87245" lon="5.70172">
        <ele>564.3</ele>
        <time>2022-05-08T09:14:17Z</time>
      </trkpt>
      <trkpt lat="44.87247" lon="5.70184">
        <ele>564.5</ele>
        <time>2022-05-08T09:14:27Z</time>
      </trkpt>
      <trkpt lat="44.87247" lon="5.70197">
        <ele>564.7</ele>
        <time>2022-05-08T09:14:37Z</time>
      </trkpt>
      <trkpt lat="44.87246" lon="5.7021">
        <ele>564.4</ele>
        <time>2022-05-08T09:14:46Z</time>
      </trkpt>
      <trkpt lat="44.87247" lon="5.70223">
        <ele>564.6</ele>
        <time>2022-05-08T09:14:58Z</time>
      </trkpt>
      <trkpt lat="44.87246" lon="5.70236">
        <ele>565</ele>
        <time>2022-05-08T09:15:09Z</time>
      </trkpt>
      <trkpt lat="44.87248" lon="5.70249">
        <ele>564.6</ele>
        <time>2022-05-08T09:15:19Z</time>
      </trkpt>
      <trkpt lat="44.87251" lon="5.70262">
        <ele>564.9</ele>
        <time>2022-05-08T09:15:29Z</time>
      </trkpt>
      <trkpt lat="44.87255" lon="5.70274">
        <ele>565</ele>
        <time>2022-05-08T09:15:39Z</time>
      </trkpt>
      <trkpt lat="44.8726" lon="5.70285">
        <ele>564.9</ele>
        <time>2022-05-08T09:15:48Z</time>
      </trkpt>
      <trkpt lat="44.87264" lon="5.70296">
        <ele>566</ele>
        <time>2022-05-08T09:15:57Z</time>
      </trkpt>
      <trkpt lat="44.8727" lon="5.70307">
        <ele>566.4</ele>
        <time>2022-05-08T09:16:07Z</time>
      </trkpt>
      <trkpt lat="44.87275" lon="5.70318">
        <ele>567.8</ele>
        <time>2022-05-08T09:16:38Z</time>
      </trkpt>
      <trkpt lat="44.87281" lon="5.70327">
        <ele>567.2</ele>
        <time>2022-05-08T09:16:47Z</time>
      </trkpt>
      <trkpt lat="44.87289" lon="5.70337">
        <ele>567</ele>
        <time>2022-05-08T09:16:57Z</time>
      </trkpt>
      <trkpt lat="44.87295" lon="5.70348">
        <ele>567.6</ele>
        <time>2022-05-08T09:17:07Z</time>
      </trkpt>
      <trkpt lat="44.87299" lon="5.70359">
        <ele>568.4</ele>
        <time>2022-05-08T09:17:17Z</time>
      </trkpt>
      <trkpt lat="44.87302" lon="5.70371">
        <ele>569</ele>
        <time>2022-05-08T09:17:27Z</time>
      </trkpt>
      <trkpt lat="44.87306" lon="5.70384">
        <ele>569.3</ele>
        <time>2022-05-08T09:17:37Z</time>
      </trkpt>
      <trkpt lat="44.87311" lon="5.70395">
        <ele>569</ele>
        <time>2022-05-08T09:17:46Z</time>
      </trkpt>
      <trkpt lat="44.87318" lon="5.70404">
        <ele>568.9</ele>
        <time>2022-05-08T09:17:58Z</time>
      </trkpt>
      <trkpt lat="44.87316" lon="5.70417">
        <ele>567.3</ele>
        <time>2022-05-08T09:19:07Z</time>
      </trkpt>
      <trkpt lat="44.87306" lon="5.70419">
        <ele>565.7</ele>
        <time>2022-05-08T09:19:24Z</time>
      </trkpt>
      <trkpt lat="44.87297" lon="5.7042">
        <ele>564.1</ele>
        <time>2022-05-08T09:19:38Z</time>
      </trkpt>
      <trkpt lat="44.87287" lon="5.70423">
        <ele>562.9</ele>
        <time>2022-05-08T09:19:51Z</time>
      </trkpt>
      <trkpt lat="44.87278" lon="5.70425">
        <ele>561.9</ele>
        <time>2022-05-08T09:20:01Z</time>
      </trkpt>
      <trkpt lat="44.87269" lon="5.70428">
        <ele>560.8</ele>
        <time>2022-05-08T09:20:13Z</time>
      </trkpt>
      <trkpt lat="44.8726" lon="5.7043">
        <ele>560.2</ele>
        <time>2022-05-08T09:20:26Z</time>
      </trkpt>
      <trkpt lat="44.87251" lon="5.70435">
        <ele>559.1</ele>
        <time>2022-05-08T09:20:38Z</time>
      </trkpt>
      <trkpt lat="44.87243" lon="5.70441">
        <ele>558.1</ele>
        <time>2022-05-08T09:20:49Z</time>
      </trkpt>
      <trkpt lat="44.87236" lon="5.70448">
        <ele>556.3</ele>
        <time>2022-05-08T09:21:04Z</time>
      </trkpt>
      <trkpt lat="44.87227" lon="5.70454">
        <ele>554.5</ele>
        <time>2022-05-08T09:21:17Z</time>
      </trkpt>
      <trkpt lat="44.87221" lon="5.70464">
        <ele>553.2</ele>
        <time>2022-05-08T09:21:29Z</time>
      </trkpt>
      <trkpt lat="44.87218" lon="5.70476">
        <ele>552.5</ele>
        <time>2022-05-08T09:22:01Z</time>
      </trkpt>
      <trkpt lat="44.87223" lon="5.70488">
        <ele>551.7</ele>
        <time>2022-05-08T09:22:29Z</time>
      </trkpt>
      <trkpt lat="44.87228" lon="5.70499">
        <ele>551.4</ele>
        <time>2022-05-08T09:22:41Z</time>
      </trkpt>
      <trkpt lat="44.87229" lon="5.70512">
        <ele>550.9</ele>
        <time>2022-05-08T09:22:55Z</time>
      </trkpt>
      <trkpt lat="44.87222" lon="5.70522">
        <ele>550.8</ele>
        <time>2022-05-08T09:23:04Z</time>
      </trkpt>
      <trkpt lat="44.87214" lon="5.70529">
        <ele>550.5</ele>
        <time>2022-05-08T09:23:20Z</time>
      </trkpt>
      <trkpt lat="44.8721" lon="5.7054">
        <ele>550.5</ele>
        <time>2022-05-08T09:23:31Z</time>
      </trkpt>
      <trkpt lat="44.87206" lon="5.70553">
        <ele>550.8</ele>
        <time>2022-05-08T09:23:42Z</time>
      </trkpt>
      <trkpt lat="44.87202" lon="5.70565">
        <ele>550.9</ele>
        <time>2022-05-08T09:23:51Z</time>
      </trkpt>
      <trkpt lat="44.87199" lon="5.70578">
        <ele>551.3</ele>
        <time>2022-05-08T09:24:02Z</time>
      </trkpt>
      <trkpt lat="44.87195" lon="5.7059">
        <ele>552</ele>
        <time>2022-05-08T09:24:13Z</time>
      </trkpt>
      <trkpt lat="44.8719" lon="5.70601">
        <ele>552.3</ele>
        <time>2022-05-08T09:24:23Z</time>
      </trkpt>
      <trkpt lat="44.87186" lon="5.70612">
        <ele>551.9</ele>
        <time>2022-05-08T09:24:36Z</time>
      </trkpt>
      <trkpt lat="44.8718" lon="5.70623">
        <ele>551.2</ele>
        <time>2022-05-08T09:24:50Z</time>
      </trkpt>
      <trkpt lat="44.87174" lon="5.70632">
        <ele>550.8</ele>
        <time>2022-05-08T09:25:05Z</time>
      </trkpt>
      <trkpt lat="44.87167" lon="5.70641">
        <ele>549.3</ele>
        <time>2022-05-08T09:25:18Z</time>
      </trkpt>
      <trkpt lat="44.87161" lon="5.7065">
        <ele>547.4</ele>
        <time>2022-05-08T09:25:34Z</time>
      </trkpt>
      <trkpt lat="44.87154" lon="5.70659">
        <ele>546.1</ele>
        <time>2022-05-08T09:25:47Z</time>
      </trkpt>
      <trkpt lat="44.87147" lon="5.70669">
        <ele>545.1</ele>
        <time>2022-05-08T09:25:58Z</time>
      </trkpt>
      <trkpt lat="44.87141" lon="5.70679">
        <ele>544.1</ele>
        <time>2022-05-08T09:26:10Z</time>
      </trkpt>
      <trkpt lat="44.87137" lon="5.70691">
        <ele>543.2</ele>
        <time>2022-05-08T09:26:24Z</time>
      </trkpt>
      <trkpt lat="44.87138" lon="5.70704">
        <ele>542</ele>
        <time>2022-05-08T09:26:38Z</time>
      </trkpt>
      <trkpt lat="44.87147" lon="5.70708">
        <ele>540.8</ele>
        <time>2022-05-08T09:26:50Z</time>
      </trkpt>
      <trkpt lat="44.87156" lon="5.70711">
        <ele>539.8</ele>
        <time>2022-05-08T09:27:01Z</time>
      </trkpt>
      <trkpt lat="44.87162" lon="5.7072">
        <ele>538.8</ele>
        <time>2022-05-08T09:27:15Z</time>
      </trkpt>
      <trkpt lat="44.87168" lon="5.7073">
        <ele>537.9</ele>
        <time>2022-05-08T09:27:26Z</time>
      </trkpt>
      <trkpt lat="44.87169" lon="5.70744">
        <ele>536.6</ele>
        <time>2022-05-08T09:27:39Z</time>
      </trkpt>
      <trkpt lat="44.87168" lon="5.70757">
        <ele>535.5</ele>
        <time>2022-05-08T09:27:52Z</time>
      </trkpt>
      <trkpt lat="44.87166" lon="5.7077">
        <ele>534.9</ele>
        <time>2022-05-08T09:28:03Z</time>
      </trkpt>
      <trkpt lat="44.87161" lon="5.70782">
        <ele>533.3</ele>
        <time>2022-05-08T09:28:17Z</time>
      </trkpt>
      <trkpt lat="44.87152" lon="5.70781">
        <ele>532.6</ele>
        <time>2022-05-08T09:28:25Z</time>
      </trkpt>
      <trkpt lat="44.87143" lon="5.70775">
        <ele>532.8</ele>
        <time>2022-05-08T09:28:36Z</time>
      </trkpt>
      <trkpt lat="44.87135" lon="5.70771">
        <ele>534.7</ele>
        <time>2022-05-08T09:28:50Z</time>
      </trkpt>
      <trkpt lat="44.87125" lon="5.70771">
        <ele>535.4</ele>
        <time>2022-05-08T09:29:03Z</time>
      </trkpt>
      <trkpt lat="44.87117" lon="5.70777">
        <ele>536.8</ele>
        <time>2022-05-08T09:29:17Z</time>
      </trkpt>
      <trkpt lat="44.8711" lon="5.70786">
        <ele>538.1</ele>
        <time>2022-05-08T09:29:33Z</time>
      </trkpt>
      <trkpt lat="44.8711" lon="5.70799">
        <ele>537.5</ele>
        <time>2022-05-08T09:29:42Z</time>
      </trkpt>
      <trkpt lat="44.8711" lon="5.70813">
        <ele>537.7</ele>
        <time>2022-05-08T09:29:53Z</time>
      </trkpt>
      <trkpt lat="44.8711" lon="5.70826">
        <ele>538.2</ele>
        <time>2022-05-08T09:30:02Z</time>
      </trkpt>
      <trkpt lat="44.87103" lon="5.70834">
        <ele>538.4</ele>
        <time>2022-05-08T09:30:07Z</time>
      </trkpt>
      <trkpt lat="44.87095" lon="5.70839">
        <ele>538.7</ele>
        <time>2022-05-08T09:30:16Z</time>
      </trkpt>
      <trkpt lat="44.87088" lon="5.70848">
        <ele>538.3</ele>
        <time>2022-05-08T09:30:26Z</time>
      </trkpt>
      <trkpt lat="44.87079" lon="5.70847">
        <ele>539.5</ele>
        <time>2022-05-08T09:30:42Z</time>
      </trkpt>
      <trkpt lat="44.8707" lon="5.70844">
        <ele>539.6</ele>
        <time>2022-05-08T09:30:57Z</time>
      </trkpt>
      <trkpt lat="44.87065" lon="5.70833">
        <ele>540.2</ele>
        <time>2022-05-08T09:31:11Z</time>
      </trkpt>
      <trkpt lat="44.87056" lon="5.70829">
        <ele>540.6</ele>
        <time>2022-05-08T09:31:23Z</time>
      </trkpt>
      <trkpt lat="44.87047" lon="5.70832">
        <ele>540.5</ele>
        <time>2022-05-08T09:31:36Z</time>
      </trkpt>
      <trkpt lat="44.87038" lon="5.70839">
        <ele>541.3</ele>
        <time>2022-05-08T09:31:48Z</time>
      </trkpt>
      <trkpt lat="44.87032" lon="5.70848">
        <ele>543</ele>
        <time>2022-05-08T09:31:59Z</time>
      </trkpt>
      <trkpt lat="44.87034" lon="5.70861">
        <ele>542.6</ele>
        <time>2022-05-08T09:32:24Z</time>
      </trkpt>
      <trkpt lat="44.87034" lon="5.70873">
        <ele>542.4</ele>
        <time>2022-05-08T09:32:38Z</time>
      </trkpt>
      <trkpt lat="44.87026" lon="5.70882">
        <ele>542.2</ele>
        <time>2022-05-08T09:32:45Z</time>
      </trkpt>
      <trkpt lat="44.87019" lon="5.70891">
        <ele>543.3</ele>
        <time>2022-05-08T09:32:56Z</time>
      </trkpt>
      <trkpt lat="44.87013" lon="5.709">
        <ele>544.3</ele>
        <time>2022-05-08T09:33:08Z</time>
      </trkpt>
      <trkpt lat="44.87007" lon="5.70912">
        <ele>545.6</ele>
        <time>2022-05-08T09:33:22Z</time>
      </trkpt>
      <trkpt lat="44.87002" lon="5.70922">
        <ele>547.2</ele>
        <time>2022-05-08T09:33:40Z</time>
      </trkpt>
      <trkpt lat="44.86997" lon="5.70933">
        <ele>548</ele>
        <time>2022-05-08T09:33:57Z</time>
      </trkpt>
      <trkpt lat="44.86989" lon="5.70939">
        <ele>550.1</ele>
        <time>2022-05-08T09:34:14Z</time>
      </trkpt>
      <trkpt lat="44.86982" lon="5.70949">
        <ele>553.4</ele>
        <time>2022-05-08T09:34:40Z</time>
      </trkpt>
      <trkpt lat="44.86974" lon="5.70943">
        <ele>551.2</ele>
        <time>2022-05-08T09:35:22Z</time>
      </trkpt>
      <trkpt lat="44.86967" lon="5.70936">
        <ele>549.8</ele>
        <time>2022-05-08T09:35:43Z</time>
      </trkpt>
      <trkpt lat="44.86959" lon="5.7093">
        <ele>546.4</ele>
        <time>2022-05-08T09:36:13Z</time>
      </trkpt>
      <trkpt lat="44.86951" lon="5.70923">
        <ele>545</ele>
        <time>2022-05-08T09:36:23Z</time>
      </trkpt>
      <trkpt lat="44.86942" lon="5.70919">
        <ele>544.2</ele>
        <time>2022-05-08T09:36:31Z</time>
      </trkpt>
      <trkpt lat="44.86933" lon="5.70914">
        <ele>542.8</ele>
        <time>2022-05-08T09:36:42Z</time>
      </trkpt>
      <trkpt lat="44.86925" lon="5.70907">
        <ele>541.4</ele>
        <time>2022-05-08T09:36:55Z</time>
      </trkpt>
      <trkpt lat="44.86917" lon="5.70901">
        <ele>540.3</ele>
        <time>2022-05-08T09:37:05Z</time>
      </trkpt>
      <trkpt lat="44.86908" lon="5.70895">
        <ele>539.3</ele>
        <time>2022-05-08T09:37:17Z</time>
      </trkpt>
      <trkpt lat="44.869" lon="5.70889">
        <ele>538.9</ele>
        <time>2022-05-08T09:37:27Z</time>
      </trkpt>
      <trkpt lat="44.86892" lon="5.70884">
        <ele>538</ele>
        <time>2022-05-08T09:37:38Z</time>
      </trkpt>
      <trkpt lat="44.86883" lon="5.70879">
        <ele>538.4</ele>
        <time>2022-05-08T09:38:13Z</time>
      </trkpt>
      <trkpt lat="44.86874" lon="5.70872">
        <ele>537.5</ele>
        <time>2022-05-08T09:38:26Z</time>
      </trkpt>
      <trkpt lat="44.86866" lon="5.70865">
        <ele>537.5</ele>
        <time>2022-05-08T09:38:39Z</time>
      </trkpt>
      <trkpt lat="44.86858" lon="5.70859">
        <ele>537.6</ele>
        <time>2022-05-08T09:38:53Z</time>
      </trkpt>
      <trkpt lat="44.8685" lon="5.70852">
        <ele>537.4</ele>
        <time>2022-05-08T09:39:04Z</time>
      </trkpt>
      <trkpt lat="44.86842" lon="5.70845">
        <ele>538.3</ele>
        <time>2022-05-08T09:39:15Z</time>
      </trkpt>
      <trkpt lat="44.86833" lon="5.70839">
        <ele>538.8</ele>
        <time>2022-05-08T09:39:27Z</time>
      </trkpt>
      <trkpt lat="44.86826" lon="5.7083">
        <ele>540.3</ele>
        <time>2022-05-08T09:39:43Z</time>
      </trkpt>
      <trkpt lat="44.86818" lon="5.70822">
        <ele>541.2</ele>
        <time>2022-05-08T09:39:57Z</time>
      </trkpt>
      <trkpt lat="44.8681" lon="5.70815">
        <ele>542.8</ele>
        <time>2022-05-08T09:40:12Z</time>
      </trkpt>
      <trkpt lat="44.86802" lon="5.7081">
        <ele>544.2</ele>
        <time>2022-05-08T09:40:26Z</time>
      </trkpt>
      <trkpt lat="44.86794" lon="5.70803">
        <ele>546.1</ele>
        <time>2022-05-08T09:40:44Z</time>
      </trkpt>
      <trkpt lat="44.86786" lon="5.70796">
        <ele>546.6</ele>
        <time>2022-05-08T09:41:05Z</time>
      </trkpt>
      <trkpt lat="44.86787" lon="5.70784">
        <ele>548.5</ele>
        <time>2022-05-08T09:41:50Z</time>
      </trkpt>
      <trkpt lat="44.86794" lon="5.70774">
        <ele>547.9</ele>
        <time>2022-05-08T09:44:20Z</time>
      </trkpt>
      <trkpt lat="44.8679" lon="5.70761">
        <ele>545.6</ele>
        <time>2022-05-08T09:44:42Z</time>
      </trkpt>
      <trkpt lat="44.86795" lon="5.7075">
        <ele>543.7</ele>
        <time>2022-05-08T09:45:04Z</time>
      </trkpt>
      <trkpt lat="44.86801" lon="5.7074">
        <ele>541.7</ele>
        <time>2022-05-08T09:45:20Z</time>
      </trkpt>
      <trkpt lat="44.86803" lon="5.70728">
        <ele>539.9</ele>
        <time>2022-05-08T09:45:37Z</time>
      </trkpt>
      <trkpt lat="44.86808" lon="5.70716">
        <ele>537.9</ele>
        <time>2022-05-08T09:45:51Z</time>
      </trkpt>
      <trkpt lat="44.86811" lon="5.70704">
        <ele>536.5</ele>
        <time>2022-05-08T09:46:04Z</time>
      </trkpt>
      <trkpt lat="44.86814" lon="5.70692">
        <ele>534.7</ele>
        <time>2022-05-08T09:46:19Z</time>
      </trkpt>
      <trkpt lat="44.86815" lon="5.70679">
        <ele>532</ele>
        <time>2022-05-08T09:46:41Z</time>
      </trkpt>
      <trkpt lat="44.86816" lon="5.70666">
        <ele>529.6</ele>
        <time>2022-05-08T09:47:02Z</time>
      </trkpt>
      <trkpt lat="44.86821" lon="5.70655">
        <ele>528.1</ele>
        <time>2022-05-08T09:47:12Z</time>
      </trkpt>
      <trkpt lat="44.86821" lon="5.70642">
        <ele>525.3</ele>
        <time>2022-05-08T09:47:35Z</time>
      </trkpt>
      <trkpt lat="44.86828" lon="5.70634">
        <ele>524.8</ele>
        <time>2022-05-08T09:47:44Z</time>
      </trkpt>
      <trkpt lat="44.86832" lon="5.70621">
        <ele>522.2</ele>
        <time>2022-05-08T09:48:23Z</time>
      </trkpt>
      <trkpt lat="44.8684" lon="5.70613">
        <ele>520.6</ele>
        <time>2022-05-08T09:48:37Z</time>
      </trkpt>
      <trkpt lat="44.86838" lon="5.70601">
        <ele>518.5</ele>
        <time>2022-05-08T09:49:00Z</time>
      </trkpt>
      <trkpt lat="44.86844" lon="5.70589">
        <ele>515.6</ele>
        <time>2022-05-08T09:49:21Z</time>
      </trkpt>
      <trkpt lat="44.86848" lon="5.70576">
        <ele>513.5</ele>
        <time>2022-05-08T09:49:44Z</time>
      </trkpt>
      <trkpt lat="44.86853" lon="5.70565">
        <ele>510.7</ele>
        <time>2022-05-08T09:50:08Z</time>
      </trkpt>
      <trkpt lat="44.86844" lon="5.70556">
        <ele>510.8</ele>
        <time>2022-05-08T09:50:31Z</time>
      </trkpt>
      <trkpt lat="44.86833" lon="5.70554">
        <ele>510.7</ele>
        <time>2022-05-08T09:50:32Z</time>
      </trkpt>
      <trkpt lat="44.86842" lon="5.70557">
        <ele>511.6</ele>
        <time>2022-05-08T09:51:21Z</time>
      </trkpt>
      <trkpt lat="44.86852" lon="5.70558">
        <ele>512</ele>
        <time>2022-05-08T09:51:33Z</time>
      </trkpt>
      <trkpt lat="44.86857" lon="5.70546">
        <ele>514.3</ele>
        <time>2022-05-08T09:51:50Z</time>
      </trkpt>
      <trkpt lat="44.86862" lon="5.70535">
        <ele>515.5</ele>
        <time>2022-05-08T09:52:12Z</time>
      </trkpt>
      <trkpt lat="44.86856" lon="5.70525">
        <ele>518</ele>
        <time>2022-05-08T09:52:37Z</time>
      </trkpt>
      <trkpt lat="44.86852" lon="5.70512">
        <ele>521.5</ele>
        <time>2022-05-08T09:53:00Z</time>
      </trkpt>
      <trkpt lat="44.86849" lon="5.705">
        <ele>522.1</ele>
        <time>2022-05-08T09:53:16Z</time>
      </trkpt>
      <trkpt lat="44.86845" lon="5.70487">
        <ele>522.1</ele>
        <time>2022-05-08T09:53:35Z</time>
      </trkpt>
      <trkpt lat="44.86842" lon="5.70474">
        <ele>524.3</ele>
        <time>2022-05-08T09:53:48Z</time>
      </trkpt>
      <trkpt lat="44.86839" lon="5.70462">
        <ele>524.5</ele>
        <time>2022-05-08T09:54:02Z</time>
      </trkpt>
      <trkpt lat="44.8684" lon="5.70449">
        <ele>527.1</ele>
        <time>2022-05-08T09:54:19Z</time>
      </trkpt>
      <trkpt lat="44.8684" lon="5.70436">
        <ele>529.2</ele>
        <time>2022-05-08T09:54:36Z</time>
      </trkpt>
      <trkpt lat="44.86844" lon="5.70424">
        <ele>530.7</ele>
        <time>2022-05-08T09:54:50Z</time>
      </trkpt>
      <trkpt lat="44.86843" lon="5.70411">
        <ele>531.6</ele>
        <time>2022-05-08T09:55:05Z</time>
      </trkpt>
      <trkpt lat="44.86843" lon="5.70398">
        <ele>532.4</ele>
        <time>2022-05-08T09:55:20Z</time>
      </trkpt>
      <trkpt lat="44.8684" lon="5.70385">
        <ele>534.3</ele>
        <time>2022-05-08T09:55:38Z</time>
      </trkpt>
      <trkpt lat="44.86836" lon="5.70372">
        <ele>536</ele>
        <time>2022-05-08T09:55:49Z</time>
      </trkpt>
      <trkpt lat="44.8683" lon="5.70362">
        <ele>536.9</ele>
        <time>2022-05-08T09:56:10Z</time>
      </trkpt>
      <trkpt lat="44.86821" lon="5.70356">
        <ele>539.7</ele>
        <time>2022-05-08T09:56:28Z</time>
      </trkpt>
      <trkpt lat="44.86816" lon="5.70345">
        <ele>543</ele>
        <time>2022-05-08T09:56:56Z</time>
      </trkpt>
      <trkpt lat="44.86812" lon="5.70333">
        <ele>546.4</ele>
        <time>2022-05-08T09:59:00Z</time>
      </trkpt>
      <trkpt lat="44.86806" lon="5.70324">
        <ele>547.4</ele>
        <time>2022-05-08T09:59:14Z</time>
      </trkpt>
      <trkpt lat="44.86798" lon="5.70317">
        <ele>548.3</ele>
        <time>2022-05-08T09:59:29Z</time>
      </trkpt>
      <trkpt lat="44.86797" lon="5.70303">
        <ele>547.9</ele>
        <time>2022-05-08T09:59:47Z</time>
      </trkpt>
      <trkpt lat="44.86792" lon="5.70292">
        <ele>548.2</ele>
        <time>2022-05-08T09:59:56Z</time>
      </trkpt>
      <trkpt lat="44.86786" lon="5.70282">
        <ele>548.3</ele>
        <time>2022-05-08T10:00:07Z</time>
      </trkpt>
      <trkpt lat="44.8678" lon="5.70271">
        <ele>549.4</ele>
        <time>2022-05-08T10:00:22Z</time>
      </trkpt>
      <trkpt lat="44.86776" lon="5.7026">
        <ele>552.4</ele>
        <time>2022-05-08T10:00:58Z</time>
      </trkpt>
      <trkpt lat="44.8677" lon="5.70251">
        <ele>554.5</ele>
        <time>2022-05-08T10:01:17Z</time>
      </trkpt>
      <trkpt lat="44.86761" lon="5.70245">
        <ele>555.7</ele>
        <time>2022-05-08T10:01:25Z</time>
      </trkpt>
      <trkpt lat="44.86753" lon="5.70239">
        <ele>556.9</ele>
        <time>2022-05-08T10:01:38Z</time>
      </trkpt>
      <trkpt lat="44.86744" lon="5.70234">
        <ele>558.9</ele>
        <time>2022-05-08T10:01:51Z</time>
      </trkpt>
      <trkpt lat="44.86737" lon="5.70226">
        <ele>560.5</ele>
        <time>2022-05-08T10:02:13Z</time>
      </trkpt>
      <trkpt lat="44.86732" lon="5.70215">
        <ele>563</ele>
        <time>2022-05-08T10:02:33Z</time>
      </trkpt>
      <trkpt lat="44.86727" lon="5.70204">
        <ele>563.6</ele>
        <time>2022-05-08T10:02:50Z</time>
      </trkpt>
      <trkpt lat="44.86722" lon="5.70193">
        <ele>565</ele>
        <time>2022-05-08T10:03:02Z</time>
      </trkpt>
      <trkpt lat="44.86725" lon="5.70179">
        <ele>565.8</ele>
        <time>2022-05-08T10:03:23Z</time>
      </trkpt>
      <trkpt lat="44.86718" lon="5.70169">
        <ele>567.7</ele>
        <time>2022-05-08T10:03:36Z</time>
      </trkpt>
      <trkpt lat="44.86721" lon="5.70157">
        <ele>569.5</ele>
        <time>2022-05-08T10:03:51Z</time>
      </trkpt>
      <trkpt lat="44.86712" lon="5.70151">
        <ele>569.3</ele>
        <time>2022-05-08T10:04:00Z</time>
      </trkpt>
      <trkpt lat="44.86715" lon="5.70138">
        <ele>572.9</ele>
        <time>2022-05-08T10:04:19Z</time>
      </trkpt>
      <trkpt lat="44.86723" lon="5.7013">
        <ele>572.8</ele>
        <time>2022-05-08T10:04:37Z</time>
      </trkpt>
      <trkpt lat="44.86728" lon="5.7012">
        <ele>574.5</ele>
        <time>2022-05-08T10:04:52Z</time>
      </trkpt>
      <trkpt lat="44.86726" lon="5.70108">
        <ele>576.7</ele>
        <time>2022-05-08T10:05:18Z</time>
      </trkpt>
      <trkpt lat="44.8672" lon="5.70098">
        <ele>578.6</ele>
        <time>2022-05-08T10:05:29Z</time>
      </trkpt>
      <trkpt lat="44.86721" lon="5.70085">
        <ele>580.7</ele>
        <time>2022-05-08T10:05:53Z</time>
      </trkpt>
      <trkpt lat="44.86721" lon="5.70072">
        <ele>583.7</ele>
        <time>2022-05-08T10:06:13Z</time>
      </trkpt>
      <trkpt lat="44.8672" lon="5.70059">
        <ele>585.4</ele>
        <time>2022-05-08T10:06:38Z</time>
      </trkpt>
      <trkpt lat="44.86714" lon="5.70049">
        <ele>588.4</ele>
        <time>2022-05-08T10:07:05Z</time>
      </trkpt>
      <trkpt lat="44.8672" lon="5.70038">
        <ele>588.8</ele>
        <time>2022-05-08T10:07:24Z</time>
      </trkpt>
      <trkpt lat="44.8672" lon="5.70026">
        <ele>588.7</ele>
        <time>2022-05-08T10:07:42Z</time>
      </trkpt>
      <trkpt lat="44.86721" lon="5.70013">
        <ele>588.5</ele>
        <time>2022-05-08T10:08:11Z</time>
      </trkpt>
      <trkpt lat="44.86715" lon="5.70023">
        <ele>592.8</ele>
        <time>2022-05-08T10:09:22Z</time>
      </trkpt>
      <trkpt lat="44.86706" lon="5.70029">
        <ele>594</ele>
        <time>2022-05-08T10:09:46Z</time>
      </trkpt>
      <trkpt lat="44.86703" lon="5.70017">
        <ele>594.8</ele>
        <time>2022-05-08T10:10:06Z</time>
      </trkpt>
      <trkpt lat="44.86696" lon="5.70024">
        <ele>598.4</ele>
        <time>2022-05-08T10:10:50Z</time>
      </trkpt>
      <trkpt lat="44.86689" lon="5.70032">
        <ele>600.5</ele>
        <time>2022-05-08T10:11:13Z</time>
      </trkpt>
      <trkpt lat="44.86682" lon="5.70041">
        <ele>603.9</ele>
        <time>2022-05-08T10:11:45Z</time>
      </trkpt>
      <trkpt lat="44.86674" lon="5.70037">
        <ele>605.1</ele>
        <time>2022-05-08T10:12:01Z</time>
      </trkpt>
      <trkpt lat="44.86664" lon="5.70037">
        <ele>606.5</ele>
        <time>2022-05-08T10:12:28Z</time>
      </trkpt>
      <trkpt lat="44.86656" lon="5.70031">
        <ele>607.5</ele>
        <time>2022-05-08T10:12:46Z</time>
      </trkpt>
      <trkpt lat="44.86647" lon="5.70023">
        <ele>609.5</ele>
        <time>2022-05-08T10:12:58Z</time>
      </trkpt>
      <trkpt lat="44.86639" lon="5.70016">
        <ele>610.5</ele>
        <time>2022-05-08T10:13:09Z</time>
      </trkpt>
      <trkpt lat="44.86642" lon="5.70003">
        <ele>608.9</ele>
        <time>2022-05-08T10:13:27Z</time>
      </trkpt>
      <trkpt lat="44.86645" lon="5.69991">
        <ele>606.1</ele>
        <time>2022-05-08T10:13:49Z</time>
      </trkpt>
      <trkpt lat="44.86641" lon="5.69979">
        <ele>604.8</ele>
        <time>2022-05-08T10:14:20Z</time>
      </trkpt>
      <trkpt lat="44.86637" lon="5.69967">
        <ele>602.6</ele>
        <time>2022-05-08T10:14:36Z</time>
      </trkpt>
      <trkpt lat="44.86637" lon="5.69953">
        <ele>603.3</ele>
        <time>2022-05-08T10:14:50Z</time>
      </trkpt>
      <trkpt lat="44.86631" lon="5.69944">
        <ele>604.3</ele>
        <time>2022-05-08T10:15:10Z</time>
      </trkpt>
      <trkpt lat="44.86626" lon="5.69933">
        <ele>603.3</ele>
        <time>2022-05-08T10:15:24Z</time>
      </trkpt>
      <trkpt lat="44.86619" lon="5.69923">
        <ele>602.9</ele>
        <time>2022-05-08T10:15:36Z</time>
      </trkpt>
      <trkpt lat="44.86617" lon="5.6991">
        <ele>601</ele>
        <time>2022-05-08T10:15:56Z</time>
      </trkpt>
      <trkpt lat="44.86608" lon="5.69906">
        <ele>600.8</ele>
        <time>2022-05-08T10:16:11Z</time>
      </trkpt>
      <trkpt lat="44.866" lon="5.69902">
        <ele>602.2</ele>
        <time>2022-05-08T10:16:20Z</time>
      </trkpt>
      <trkpt lat="44.86596" lon="5.69889">
        <ele>602</ele>
        <time>2022-05-08T10:16:32Z</time>
      </trkpt>
      <trkpt lat="44.86589" lon="5.69881">
        <ele>602.7</ele>
        <time>2022-05-08T10:16:51Z</time>
      </trkpt>
      <trkpt lat="44.8658" lon="5.69875">
        <ele>601.5</ele>
        <time>2022-05-08T10:17:04Z</time>
      </trkpt>
      <trkpt lat="44.8657" lon="5.69866">
        <ele>600.9</ele>
        <time>2022-05-08T10:17:25Z</time>
      </trkpt>
      <trkpt lat="44.86565" lon="5.69855">
        <ele>600.7</ele>
        <time>2022-05-08T10:17:38Z</time>
      </trkpt>
      <trkpt lat="44.86558" lon="5.69845">
        <ele>599.5</ele>
        <time>2022-05-08T10:17:50Z</time>
      </trkpt>
      <trkpt lat="44.86555" lon="5.69831">
        <ele>598.2</ele>
        <time>2022-05-08T10:18:06Z</time>
      </trkpt>
      <trkpt lat="44.86549" lon="5.69822">
        <ele>597.8</ele>
        <time>2022-05-08T10:18:25Z</time>
      </trkpt>
      <trkpt lat="44.86539" lon="5.69822">
        <ele>601.8</ele>
        <time>2022-05-08T10:19:46Z</time>
      </trkpt>
      <trkpt lat="44.86533" lon="5.69812">
        <ele>602</ele>
        <time>2022-05-08T10:20:00Z</time>
      </trkpt>
      <trkpt lat="44.86529" lon="5.69801">
        <ele>601.8</ele>
        <time>2022-05-08T10:20:12Z</time>
      </trkpt>
      <trkpt lat="44.86526" lon="5.69788">
        <ele>602.7</ele>
        <time>2022-05-08T10:20:26Z</time>
      </trkpt>
      <trkpt lat="44.86525" lon="5.69775">
        <ele>603.7</ele>
        <time>2022-05-08T10:22:01Z</time>
      </trkpt>
      <trkpt lat="44.86522" lon="5.69762">
        <ele>604.2</ele>
        <time>2022-05-08T10:22:22Z</time>
      </trkpt>
      <trkpt lat="44.86524" lon="5.69749">
        <ele>606.2</ele>
        <time>2022-05-08T10:22:43Z</time>
      </trkpt>
      <trkpt lat="44.86522" lon="5.69737">
        <ele>606.3</ele>
        <time>2022-05-08T10:22:58Z</time>
      </trkpt>
      <trkpt lat="44.86518" lon="5.69725">
        <ele>608.4</ele>
        <time>2022-05-08T10:23:13Z</time>
      </trkpt>
      <trkpt lat="44.86514" lon="5.69713">
        <ele>610.2</ele>
        <time>2022-05-08T10:23:26Z</time>
      </trkpt>
      <trkpt lat="44.8652" lon="5.69703">
        <ele>610.9</ele>
        <time>2022-05-08T10:23:42Z</time>
      </trkpt>
      <trkpt lat="44.86528" lon="5.69697">
        <ele>609.9</ele>
        <time>2022-05-08T10:23:54Z</time>
      </trkpt>
      <trkpt lat="44.86536" lon="5.69691">
        <ele>609.1</ele>
        <time>2022-05-08T10:24:06Z</time>
      </trkpt>
      <trkpt lat="44.86544" lon="5.69687">
        <ele>606.9</ele>
        <time>2022-05-08T10:24:26Z</time>
      </trkpt>
      <trkpt lat="44.86554" lon="5.6969">
        <ele>604.6</ele>
        <time>2022-05-08T10:24:43Z</time>
      </trkpt>
      <trkpt lat="44.86563" lon="5.69692">
        <ele>606.4</ele>
        <time>2022-05-08T10:25:02Z</time>
      </trkpt>
      <trkpt lat="44.86571" lon="5.69684">
        <ele>606.9</ele>
        <time>2022-05-08T10:25:16Z</time>
      </trkpt>
      <trkpt lat="44.86578" lon="5.69675">
        <ele>607.3</ele>
        <time>2022-05-08T10:25:24Z</time>
      </trkpt>
      <trkpt lat="44.86586" lon="5.69668">
        <ele>609.1</ele>
        <time>2022-05-08T10:25:36Z</time>
      </trkpt>
      <trkpt lat="44.86595" lon="5.69663">
        <ele>610.3</ele>
        <time>2022-05-08T10:25:56Z</time>
      </trkpt>
      <trkpt lat="44.86605" lon="5.69661">
        <ele>612</ele>
        <time>2022-05-08T10:26:40Z</time>
      </trkpt>
      <trkpt lat="44.86613" lon="5.69658">
        <ele>612</ele>
        <time>2022-05-08T10:28:37Z</time>
      </trkpt>
      <trkpt lat="44.86622" lon="5.69654">
        <ele>612.6</ele>
        <time>2022-05-08T10:28:57Z</time>
      </trkpt>
      <trkpt lat="44.86621" lon="5.69641">
        <ele>615.8</ele>
        <time>2022-05-08T10:29:16Z</time>
      </trkpt>
      <trkpt lat="44.86622" lon="5.69628">
        <ele>615.8</ele>
        <time>2022-05-08T10:29:32Z</time>
      </trkpt>
      <trkpt lat="44.86627" lon="5.69616">
        <ele>616.5</ele>
        <time>2022-05-08T10:30:13Z</time>
      </trkpt>
      <trkpt lat="44.86619" lon="5.69608">
        <ele>618.5</ele>
        <time>2022-05-08T10:30:42Z</time>
      </trkpt>
      <trkpt lat="44.8661" lon="5.69602">
        <ele>618.5</ele>
        <time>2022-05-08T10:30:49Z</time>
      </trkpt>
      <trkpt lat="44.86604" lon="5.69593">
        <ele>619.8</ele>
        <time>2022-05-08T10:31:01Z</time>
      </trkpt>
      <trkpt lat="44.86607" lon="5.69581">
        <ele>620.8</ele>
        <time>2022-05-08T10:31:40Z</time>
      </trkpt>
      <trkpt lat="44.86615" lon="5.69587">
        <ele>620.7</ele>
        <time>2022-05-08T10:33:07Z</time>
      </trkpt>
      <trkpt lat="44.86606" lon="5.69584">
        <ele>619.5</ele>
        <time>2022-05-08T10:38:32Z</time>
      </trkpt>
      <trkpt lat="44.86613" lon="5.69575">
        <ele>619.8</ele>
        <time>2022-05-08T10:38:59Z</time>
      </trkpt>
      <trkpt lat="44.86618" lon="5.69563">
        <ele>620.9</ele>
        <time>2022-05-08T10:39:16Z</time>
      </trkpt>
      <trkpt lat="44.86621" lon="5.69551">
        <ele>621.5</ele>
        <time>2022-05-08T10:39:28Z</time>
      </trkpt>
      <trkpt lat="44.86624" lon="5.69539">
        <ele>622.1</ele>
        <time>2022-05-08T10:39:42Z</time>
      </trkpt>
      <trkpt lat="44.86629" lon="5.69527">
        <ele>622.8</ele>
        <time>2022-05-08T10:39:56Z</time>
      </trkpt>
      <trkpt lat="44.86628" lon="5.69514">
        <ele>623</ele>
        <time>2022-05-08T10:40:07Z</time>
      </trkpt>
      <trkpt lat="44.86632" lon="5.69501">
        <ele>623.4</ele>
        <time>2022-05-08T10:40:20Z</time>
      </trkpt>
      <trkpt lat="44.86631" lon="5.69488">
        <ele>624.5</ele>
        <time>2022-05-08T10:40:37Z</time>
      </trkpt>
      <trkpt lat="44.86634" lon="5.69475">
        <ele>624.7</ele>
        <time>2022-05-08T10:41:30Z</time>
      </trkpt>
      <trkpt lat="44.86635" lon="5.69462">
        <ele>625.6</ele>
        <time>2022-05-08T10:41:51Z</time>
      </trkpt>
      <trkpt lat="44.86632" lon="5.6945">
        <ele>626.1</ele>
        <time>2022-05-08T10:42:02Z</time>
      </trkpt>
      <trkpt lat="44.86629" lon="5.69437">
        <ele>627.5</ele>
        <time>2022-05-08T10:42:17Z</time>
      </trkpt>
      <trkpt lat="44.86623" lon="5.69427">
        <ele>628.3</ele>
        <time>2022-05-08T10:42:29Z</time>
      </trkpt>
      <trkpt lat="44.86617" lon="5.69417">
        <ele>629.4</ele>
        <time>2022-05-08T10:42:47Z</time>
      </trkpt>
      <trkpt lat="44.86611" lon="5.69407">
        <ele>630.7</ele>
        <time>2022-05-08T10:43:04Z</time>
      </trkpt>
      <trkpt lat="44.86607" lon="5.69396">
        <ele>632.5</ele>
        <time>2022-05-08T10:44:04Z</time>
      </trkpt>
      <trkpt lat="44.86614" lon="5.69388">
        <ele>633</ele>
        <time>2022-05-08T12:42:55Z</time>
      </trkpt>
      <trkpt lat="44.86619" lon="5.69399">
        <ele>631.8</ele>
        <time>2022-05-08T12:45:26Z</time>
      </trkpt>
      <trkpt lat="44.86627" lon="5.69406">
        <ele>630.4</ele>
        <time>2022-05-08T12:45:52Z</time>
      </trkpt>
      <trkpt lat="44.86633" lon="5.69418">
        <ele>628.9</ele>
        <time>2022-05-08T12:46:15Z</time>
      </trkpt>
      <trkpt lat="44.86639" lon="5.69428">
        <ele>627.9</ele>
        <time>2022-05-08T12:46:29Z</time>
      </trkpt>
      <trkpt lat="44.86644" lon="5.6944">
        <ele>627.1</ele>
        <time>2022-05-08T12:46:39Z</time>
      </trkpt>
      <trkpt lat="44.8665" lon="5.69451">
        <ele>626.8</ele>
        <time>2022-05-08T12:46:47Z</time>
      </trkpt>
      <trkpt lat="44.86642" lon="5.69457">
        <ele>626.2</ele>
        <time>2022-05-08T12:46:58Z</time>
      </trkpt>
      <trkpt lat="44.86639" lon="5.6947">
        <ele>626</ele>
        <time>2022-05-08T12:47:13Z</time>
      </trkpt>
      <trkpt lat="44.86632" lon="5.69479">
        <ele>626.9</ele>
        <time>2022-05-08T12:47:26Z</time>
      </trkpt>
      <trkpt lat="44.86625" lon="5.69488">
        <ele>627.3</ele>
        <time>2022-05-08T12:47:46Z</time>
      </trkpt>
      <trkpt lat="44.8662" lon="5.69498">
        <ele>627.5</ele>
        <time>2022-05-08T12:47:57Z</time>
      </trkpt>
      <trkpt lat="44.86614" lon="5.69508">
        <ele>628.2</ele>
        <time>2022-05-08T12:48:11Z</time>
      </trkpt>
      <trkpt lat="44.86607" lon="5.69518">
        <ele>628.5</ele>
        <time>2022-05-08T12:48:22Z</time>
      </trkpt>
      <trkpt lat="44.866" lon="5.69526">
        <ele>628.9</ele>
        <time>2022-05-08T12:48:33Z</time>
      </trkpt>
      <trkpt lat="44.86591" lon="5.69527">
        <ele>629.1</ele>
        <time>2022-05-08T12:48:43Z</time>
      </trkpt>
      <trkpt lat="44.86581" lon="5.69528">
        <ele>629.1</ele>
        <time>2022-05-08T12:48:54Z</time>
      </trkpt>
      <trkpt lat="44.86572" lon="5.69528">
        <ele>629.6</ele>
        <time>2022-05-08T12:49:05Z</time>
      </trkpt>
      <trkpt lat="44.86562" lon="5.69527">
        <ele>629.6</ele>
        <time>2022-05-08T12:49:16Z</time>
      </trkpt>
      <trkpt lat="44.86553" lon="5.69523">
        <ele>630.4</ele>
        <time>2022-05-08T12:49:29Z</time>
      </trkpt>
      <trkpt lat="44.86544" lon="5.69518">
        <ele>631.6</ele>
        <time>2022-05-08T12:49:41Z</time>
      </trkpt>
      <trkpt lat="44.86535" lon="5.69512">
        <ele>632.4</ele>
        <time>2022-05-08T12:49:53Z</time>
      </trkpt>
      <trkpt lat="44.86526" lon="5.69507">
        <ele>634.2</ele>
        <time>2022-05-08T12:50:06Z</time>
      </trkpt>
      <trkpt lat="44.86518" lon="5.69501">
        <ele>635.8</ele>
        <time>2022-05-08T12:50:20Z</time>
      </trkpt>
      <trkpt lat="44.8651" lon="5.69493">
        <ele>636.9</ele>
        <time>2022-05-08T12:50:34Z</time>
      </trkpt>
      <trkpt lat="44.86503" lon="5.69485">
        <ele>637.9</ele>
        <time>2022-05-08T12:50:47Z</time>
      </trkpt>
      <trkpt lat="44.86496" lon="5.69477">
        <ele>639</ele>
        <time>2022-05-08T12:51:03Z</time>
      </trkpt>
      <trkpt lat="44.86488" lon="5.69468">
        <ele>640.8</ele>
        <time>2022-05-08T12:51:17Z</time>
      </trkpt>
      <trkpt lat="44.8648" lon="5.69461">
        <ele>641.7</ele>
        <time>2022-05-08T12:51:30Z</time>
      </trkpt>
      <trkpt lat="44.86473" lon="5.69453">
        <ele>642.8</ele>
        <time>2022-05-08T12:51:48Z</time>
      </trkpt>
      <trkpt lat="44.86465" lon="5.69445">
        <ele>644.4</ele>
        <time>2022-05-08T12:52:02Z</time>
      </trkpt>
      <trkpt lat="44.86457" lon="5.69438">
        <ele>646.4</ele>
        <time>2022-05-08T12:52:19Z</time>
      </trkpt>
      <trkpt lat="44.86451" lon="5.69429">
        <ele>648.3</ele>
        <time>2022-05-08T12:52:40Z</time>
      </trkpt>
      <trkpt lat="44.86444" lon="5.69421">
        <ele>649.9</ele>
        <time>2022-05-08T12:52:57Z</time>
      </trkpt>
      <trkpt lat="44.86435" lon="5.69416">
        <ele>653</ele>
        <time>2022-05-08T12:53:18Z</time>
      </trkpt>
      <trkpt lat="44.86426" lon="5.69412">
        <ele>654.5</ele>
        <time>2022-05-08T12:53:33Z</time>
      </trkpt>
      <trkpt lat="44.86417" lon="5.6941">
        <ele>656.7</ele>
        <time>2022-05-08T12:53:58Z</time>
      </trkpt>
      <trkpt lat="44.86407" lon="5.69409">
        <ele>657.5</ele>
        <time>2022-05-08T12:54:12Z</time>
      </trkpt>
      <trkpt lat="44.86398" lon="5.69409">
        <ele>659.5</ele>
        <time>2022-05-08T12:54:33Z</time>
      </trkpt>
      <trkpt lat="44.86389" lon="5.69415">
        <ele>661.2</ele>
        <time>2022-05-08T12:54:52Z</time>
      </trkpt>
      <trkpt lat="44.8638" lon="5.69419">
        <ele>663</ele>
        <time>2022-05-08T12:55:18Z</time>
      </trkpt>
      <trkpt lat="44.86373" lon="5.69428">
        <ele>663.6</ele>
        <time>2022-05-08T12:55:43Z</time>
      </trkpt>
      <trkpt lat="44.8637" lon="5.6944">
        <ele>663.7</ele>
        <time>2022-05-08T12:55:58Z</time>
      </trkpt>
      <trkpt lat="44.86366" lon="5.69452">
        <ele>663.9</ele>
        <time>2022-05-08T12:56:33Z</time>
      </trkpt>
      <trkpt lat="44.86363" lon="5.69465">
        <ele>664.7</ele>
        <time>2022-05-08T12:56:49Z</time>
      </trkpt>
      <trkpt lat="44.86357" lon="5.69474">
        <ele>666.1</ele>
        <time>2022-05-08T12:57:00Z</time>
      </trkpt>
      <trkpt lat="44.8635" lon="5.69482">
        <ele>667.1</ele>
        <time>2022-05-08T12:57:12Z</time>
      </trkpt>
      <trkpt lat="44.86343" lon="5.6949">
        <ele>668.9</ele>
        <time>2022-05-08T12:57:28Z</time>
      </trkpt>
      <trkpt lat="44.86334" lon="5.69497">
        <ele>671.2</ele>
        <time>2022-05-08T12:57:45Z</time>
      </trkpt>
      <trkpt lat="44.86327" lon="5.69506">
        <ele>672.2</ele>
        <time>2022-05-08T12:57:59Z</time>
      </trkpt>
      <trkpt lat="44.86321" lon="5.69516">
        <ele>673</ele>
        <time>2022-05-08T12:58:15Z</time>
      </trkpt>
      <trkpt lat="44.86317" lon="5.69529">
        <ele>673.7</ele>
        <time>2022-05-08T12:58:28Z</time>
      </trkpt>
      <trkpt lat="44.8631" lon="5.69538">
        <ele>674.7</ele>
        <time>2022-05-08T12:58:39Z</time>
      </trkpt>
      <trkpt lat="44.86305" lon="5.6955">
        <ele>675.9</ele>
        <time>2022-05-08T12:58:51Z</time>
      </trkpt>
      <trkpt lat="44.86298" lon="5.69558">
        <ele>676.3</ele>
        <time>2022-05-08T12:59:21Z</time>
      </trkpt>
      <trkpt lat="44.86294" lon="5.6957">
        <ele>676.4</ele>
        <time>2022-05-08T12:59:58Z</time>
      </trkpt>
      <trkpt lat="44.86291" lon="5.69583">
        <ele>675.9</ele>
        <time>2022-05-08T13:00:09Z</time>
      </trkpt>
      <trkpt lat="44.86287" lon="5.69595">
        <ele>675.8</ele>
        <time>2022-05-08T13:00:20Z</time>
      </trkpt>
      <trkpt lat="44.86284" lon="5.69608">
        <ele>675.6</ele>
        <time>2022-05-08T13:00:31Z</time>
      </trkpt>
      <trkpt lat="44.86282" lon="5.69621">
        <ele>674.8</ele>
        <time>2022-05-08T13:00:43Z</time>
      </trkpt>
      <trkpt lat="44.86279" lon="5.69635">
        <ele>673.8</ele>
        <time>2022-05-08T13:00:55Z</time>
      </trkpt>
      <trkpt lat="44.86278" lon="5.69647">
        <ele>673.1</ele>
        <time>2022-05-08T13:01:06Z</time>
      </trkpt>
      <trkpt lat="44.86275" lon="5.6966">
        <ele>672.5</ele>
        <time>2022-05-08T13:01:17Z</time>
      </trkpt>
      <trkpt lat="44.86275" lon="5.69673">
        <ele>670.9</ele>
        <time>2022-05-08T13:01:31Z</time>
      </trkpt>
      <trkpt lat="44.86273" lon="5.69686">
        <ele>669.1</ele>
        <time>2022-05-08T13:01:47Z</time>
      </trkpt>
      <trkpt lat="44.86272" lon="5.69699">
        <ele>666.8</ele>
        <time>2022-05-08T13:02:05Z</time>
      </trkpt>
      <trkpt lat="44.86271" lon="5.69712">
        <ele>664.7</ele>
        <time>2022-05-08T13:02:23Z</time>
      </trkpt>
      <trkpt lat="44.86273" lon="5.69726">
        <ele>662.4</ele>
        <time>2022-05-08T13:02:41Z</time>
      </trkpt>
      <trkpt lat="44.86274" lon="5.69738">
        <ele>660.6</ele>
        <time>2022-05-08T13:02:59Z</time>
      </trkpt>
      <trkpt lat="44.86276" lon="5.69752">
        <ele>658.5</ele>
        <time>2022-05-08T13:03:19Z</time>
      </trkpt>
      <trkpt lat="44.86281" lon="5.69763">
        <ele>657.2</ele>
        <time>2022-05-08T13:03:32Z</time>
      </trkpt>
      <trkpt lat="44.86285" lon="5.69775">
        <ele>656.4</ele>
        <time>2022-05-08T13:03:41Z</time>
      </trkpt>
      <trkpt lat="44.86287" lon="5.69787">
        <ele>655.6</ele>
        <time>2022-05-08T13:03:50Z</time>
      </trkpt>
      <trkpt lat="44.8629" lon="5.69801">
        <ele>655.4</ele>
        <time>2022-05-08T13:04:00Z</time>
      </trkpt>
      <trkpt lat="44.86292" lon="5.69813">
        <ele>655.4</ele>
        <time>2022-05-08T13:04:12Z</time>
      </trkpt>
      <trkpt lat="44.86296" lon="5.69825">
        <ele>655.2</ele>
        <time>2022-05-08T13:04:22Z</time>
      </trkpt>
      <trkpt lat="44.863" lon="5.69837">
        <ele>655</ele>
        <time>2022-05-08T13:04:31Z</time>
      </trkpt>
      <trkpt lat="44.86305" lon="5.69849">
        <ele>655.2</ele>
        <time>2022-05-08T13:04:40Z</time>
      </trkpt>
      <trkpt lat="44.86309" lon="5.69861">
        <ele>655.9</ele>
        <time>2022-05-08T13:04:49Z</time>
      </trkpt>
      <trkpt lat="44.86312" lon="5.69873">
        <ele>656.4</ele>
        <time>2022-05-08T13:05:01Z</time>
      </trkpt>
      <trkpt lat="44.86317" lon="5.69884">
        <ele>656.6</ele>
        <time>2022-05-08T13:05:11Z</time>
      </trkpt>
      <trkpt lat="44.8632" lon="5.69897">
        <ele>656.9</ele>
        <time>2022-05-08T13:05:23Z</time>
      </trkpt>
      <trkpt lat="44.86326" lon="5.69906">
        <ele>658.9</ele>
        <time>2022-05-08T13:05:44Z</time>
      </trkpt>
      <trkpt lat="44.86335" lon="5.69911">
        <ele>659.4</ele>
        <time>2022-05-08T13:05:51Z</time>
      </trkpt>
      <trkpt lat="44.86344" lon="5.69912">
        <ele>659.5</ele>
        <time>2022-05-08T13:06:03Z</time>
      </trkpt>
      <trkpt lat="44.86353" lon="5.69911">
        <ele>658.7</ele>
        <time>2022-05-08T13:06:14Z</time>
      </trkpt>
      <trkpt lat="44.86362" lon="5.69909">
        <ele>658.6</ele>
        <time>2022-05-08T13:06:25Z</time>
      </trkpt>
      <trkpt lat="44.86371" lon="5.69904">
        <ele>658</ele>
        <time>2022-05-08T13:06:39Z</time>
      </trkpt>
      <trkpt lat="44.8638" lon="5.69904">
        <ele>657.1</ele>
        <time>2022-05-08T13:06:49Z</time>
      </trkpt>
      <trkpt lat="44.8639" lon="5.69904">
        <ele>655.8</ele>
        <time>2022-05-08T13:07:15Z</time>
      </trkpt>
      <trkpt lat="44.86395" lon="5.69914">
        <ele>654.8</ele>
        <time>2022-05-08T13:07:33Z</time>
      </trkpt>
      <trkpt lat="44.86399" lon="5.69925">
        <ele>653.6</ele>
        <time>2022-05-08T13:08:00Z</time>
      </trkpt>
      <trkpt lat="44.86396" lon="5.69937">
        <ele>652.3</ele>
        <time>2022-05-08T13:08:16Z</time>
      </trkpt>
      <trkpt lat="44.86392" lon="5.69949">
        <ele>650.7</ele>
        <time>2022-05-08T13:08:30Z</time>
      </trkpt>
      <trkpt lat="44.86387" lon="5.69961">
        <ele>649.8</ele>
        <time>2022-05-08T13:08:42Z</time>
      </trkpt>
      <trkpt lat="44.86383" lon="5.69973">
        <ele>648.9</ele>
        <time>2022-05-08T13:08:54Z</time>
      </trkpt>
      <trkpt lat="44.86381" lon="5.69986">
        <ele>648</ele>
        <time>2022-05-08T13:09:09Z</time>
      </trkpt>
      <trkpt lat="44.86378" lon="5.69998">
        <ele>647.5</ele>
        <time>2022-05-08T13:09:19Z</time>
      </trkpt>
      <trkpt lat="44.86375" lon="5.7001">
        <ele>646.8</ele>
        <time>2022-05-08T13:09:29Z</time>
      </trkpt>
      <trkpt lat="44.8637" lon="5.70021">
        <ele>646.6</ele>
        <time>2022-05-08T13:09:41Z</time>
      </trkpt>
      <trkpt lat="44.86364" lon="5.70032">
        <ele>647.5</ele>
        <time>2022-05-08T13:09:53Z</time>
      </trkpt>
      <trkpt lat="44.86357" lon="5.70041">
        <ele>648.1</ele>
        <time>2022-05-08T13:10:03Z</time>
      </trkpt>
      <trkpt lat="44.86353" lon="5.70052">
        <ele>649.1</ele>
        <time>2022-05-08T13:10:16Z</time>
      </trkpt>
      <trkpt lat="44.8635" lon="5.70065">
        <ele>650</ele>
        <time>2022-05-08T13:10:27Z</time>
      </trkpt>
      <trkpt lat="44.86346" lon="5.70076">
        <ele>651</ele>
        <time>2022-05-08T13:10:39Z</time>
      </trkpt>
      <trkpt lat="44.8634" lon="5.70086">
        <ele>652.9</ele>
        <time>2022-05-08T13:10:59Z</time>
      </trkpt>
      <trkpt lat="44.8634" lon="5.701">
        <ele>654.4</ele>
        <time>2022-05-08T13:11:18Z</time>
      </trkpt>
      <trkpt lat="44.86344" lon="5.70112">
        <ele>655.8</ele>
        <time>2022-05-08T13:11:32Z</time>
      </trkpt>
      <trkpt lat="44.86349" lon="5.70125">
        <ele>656.7</ele>
        <time>2022-05-08T13:11:45Z</time>
      </trkpt>
      <trkpt lat="44.86349" lon="5.70138">
        <ele>657.4</ele>
        <time>2022-05-08T13:12:01Z</time>
      </trkpt>
      <trkpt lat="44.86349" lon="5.7015">
        <ele>658.7</ele>
        <time>2022-05-08T13:12:15Z</time>
      </trkpt>
      <trkpt lat="44.86355" lon="5.70162">
        <ele>659.5</ele>
        <time>2022-05-08T13:12:22Z</time>
      </trkpt>
      <trkpt lat="44.86352" lon="5.70174">
        <ele>660.2</ele>
        <time>2022-05-08T13:12:34Z</time>
      </trkpt>
      <trkpt lat="44.86352" lon="5.70187">
        <ele>661.4</ele>
        <time>2022-05-08T13:12:49Z</time>
      </trkpt>
      <trkpt lat="44.86356" lon="5.702">
        <ele>662.6</ele>
        <time>2022-05-08T13:13:00Z</time>
      </trkpt>
      <trkpt lat="44.86357" lon="5.70213">
        <ele>663.8</ele>
        <time>2022-05-08T13:13:16Z</time>
      </trkpt>
      <trkpt lat="44.86361" lon="5.70224">
        <ele>665.2</ele>
        <time>2022-05-08T13:13:28Z</time>
      </trkpt>
      <trkpt lat="44.86368" lon="5.70233">
        <ele>666.1</ele>
        <time>2022-05-08T13:13:44Z</time>
      </trkpt>
      <trkpt lat="44.86377" lon="5.70237">
        <ele>667.7</ele>
        <time>2022-05-08T13:14:00Z</time>
      </trkpt>
      <trkpt lat="44.86385" lon="5.70242">
        <ele>669</ele>
        <time>2022-05-08T13:14:15Z</time>
      </trkpt>
      <trkpt lat="44.86394" lon="5.70247">
        <ele>669.9</ele>
        <time>2022-05-08T13:14:28Z</time>
      </trkpt>
      <trkpt lat="44.86401" lon="5.70255">
        <ele>671.1</ele>
        <time>2022-05-08T13:14:40Z</time>
      </trkpt>
      <trkpt lat="44.86403" lon="5.70268">
        <ele>672</ele>
        <time>2022-05-08T13:14:53Z</time>
      </trkpt>
      <trkpt lat="44.86398" lon="5.7028">
        <ele>671.6</ele>
        <time>2022-05-08T13:15:08Z</time>
      </trkpt>
      <trkpt lat="44.86391" lon="5.70287">
        <ele>670.7</ele>
        <time>2022-05-08T13:15:26Z</time>
      </trkpt>
      <trkpt lat="44.86384" lon="5.70296">
        <ele>669.4</ele>
        <time>2022-05-08T13:15:39Z</time>
      </trkpt>
      <trkpt lat="44.86378" lon="5.70306">
        <ele>669</ele>
        <time>2022-05-08T13:15:53Z</time>
      </trkpt>
      <trkpt lat="44.86381" lon="5.70318">
        <ele>666.6</ele>
        <time>2022-05-08T13:16:13Z</time>
      </trkpt>
      <trkpt lat="44.86383" lon="5.70331">
        <ele>664.6</ele>
        <time>2022-05-08T13:16:33Z</time>
      </trkpt>
      <trkpt lat="44.86387" lon="5.70343">
        <ele>663.2</ele>
        <time>2022-05-08T13:16:50Z</time>
      </trkpt>
      <trkpt lat="44.86393" lon="5.70354">
        <ele>662.1</ele>
        <time>2022-05-08T13:17:01Z</time>
      </trkpt>
      <trkpt lat="44.86398" lon="5.70366">
        <ele>661.3</ele>
        <time>2022-05-08T13:17:12Z</time>
      </trkpt>
      <trkpt lat="44.86401" lon="5.70378">
        <ele>660.5</ele>
        <time>2022-05-08T13:17:23Z</time>
      </trkpt>
      <trkpt lat="44.86403" lon="5.70391">
        <ele>659.7</ele>
        <time>2022-05-08T13:17:32Z</time>
      </trkpt>
      <trkpt lat="44.86403" lon="5.70404">
        <ele>658.4</ele>
        <time>2022-05-08T13:17:45Z</time>
      </trkpt>
      <trkpt lat="44.86399" lon="5.70416">
        <ele>656.5</ele>
        <time>2022-05-08T13:18:01Z</time>
      </trkpt>
      <trkpt lat="44.86392" lon="5.70423">
        <ele>653.5</ele>
        <time>2022-05-08T13:18:22Z</time>
      </trkpt>
      <trkpt lat="44.8639" lon="5.70437">
        <ele>653.9</ele>
        <time>2022-05-08T13:18:43Z</time>
      </trkpt>
      <trkpt lat="44.86387" lon="5.70449">
        <ele>652.5</ele>
        <time>2022-05-08T13:18:58Z</time>
      </trkpt>
      <trkpt lat="44.86383" lon="5.7046">
        <ele>650.7</ele>
        <time>2022-05-08T13:19:13Z</time>
      </trkpt>
      <trkpt lat="44.86382" lon="5.70473">
        <ele>648.6</ele>
        <time>2022-05-08T13:19:34Z</time>
      </trkpt>
      <trkpt lat="44.86386" lon="5.70485">
        <ele>646.4</ele>
        <time>2022-05-08T13:19:55Z</time>
      </trkpt>
      <trkpt lat="44.8639" lon="5.70498">
        <ele>645.1</ele>
        <time>2022-05-08T13:20:08Z</time>
      </trkpt>
      <trkpt lat="44.86394" lon="5.70511">
        <ele>644.5</ele>
        <time>2022-05-08T13:20:21Z</time>
      </trkpt>
      <trkpt lat="44.86401" lon="5.70521">
        <ele>643.2</ele>
        <time>2022-05-08T13:20:41Z</time>
      </trkpt>
      <trkpt lat="44.86408" lon="5.70532">
        <ele>642.8</ele>
        <time>2022-05-08T13:20:52Z</time>
      </trkpt>
      <trkpt lat="44.86416" lon="5.70538">
        <ele>642.5</ele>
        <time>2022-05-08T13:21:05Z</time>
      </trkpt>
      <trkpt lat="44.86423" lon="5.70547">
        <ele>642.6</ele>
        <time>2022-05-08T13:21:13Z</time>
      </trkpt>
      <trkpt lat="44.86431" lon="5.70555">
        <ele>643.1</ele>
        <time>2022-05-08T13:21:22Z</time>
      </trkpt>
      <trkpt lat="44.86437" lon="5.70565">
        <ele>643.6</ele>
        <time>2022-05-08T13:21:30Z</time>
      </trkpt>
      <trkpt lat="44.86443" lon="5.70575">
        <ele>644.2</ele>
        <time>2022-05-08T13:21:39Z</time>
      </trkpt>
      <trkpt lat="44.86449" lon="5.70586">
        <ele>644.5</ele>
        <time>2022-05-08T13:21:45Z</time>
      </trkpt>
      <trkpt lat="44.8645" lon="5.70599">
        <ele>644.3</ele>
        <time>2022-05-08T13:22:00Z</time>
      </trkpt>
      <trkpt lat="44.86456" lon="5.7061">
        <ele>644.1</ele>
        <time>2022-05-08T13:22:09Z</time>
      </trkpt>
      <trkpt lat="44.86459" lon="5.70624">
        <ele>643</ele>
        <time>2022-05-08T13:22:20Z</time>
      </trkpt>
      <trkpt lat="44.86463" lon="5.70636">
        <ele>642.8</ele>
        <time>2022-05-08T13:22:31Z</time>
      </trkpt>
      <trkpt lat="44.8646" lon="5.70648">
        <ele>642</ele>
        <time>2022-05-08T13:22:45Z</time>
      </trkpt>
      <trkpt lat="44.86464" lon="5.7066">
        <ele>641.8</ele>
        <time>2022-05-08T13:22:53Z</time>
      </trkpt>
      <trkpt lat="44.86466" lon="5.70673">
        <ele>641.6</ele>
        <time>2022-05-08T13:23:06Z</time>
      </trkpt>
      <trkpt lat="44.8647" lon="5.70686">
        <ele>641.8</ele>
        <time>2022-05-08T13:23:17Z</time>
      </trkpt>
      <trkpt lat="44.86477" lon="5.70696">
        <ele>640.8</ele>
        <time>2022-05-08T13:23:30Z</time>
      </trkpt>
      <trkpt lat="44.86483" lon="5.70705">
        <ele>639.7</ele>
        <time>2022-05-08T13:23:45Z</time>
      </trkpt>
      <trkpt lat="44.86492" lon="5.70707">
        <ele>639.5</ele>
        <time>2022-05-08T13:23:56Z</time>
      </trkpt>
      <trkpt lat="44.86502" lon="5.70708">
        <ele>639.4</ele>
        <time>2022-05-08T13:24:08Z</time>
      </trkpt>
      <trkpt lat="44.86511" lon="5.70709">
        <ele>639.5</ele>
        <time>2022-05-08T13:24:20Z</time>
      </trkpt>
      <trkpt lat="44.8652" lon="5.70712">
        <ele>638.9</ele>
        <time>2022-05-08T13:24:58Z</time>
      </trkpt>
      <trkpt lat="44.86526" lon="5.70702">
        <ele>638.1</ele>
        <time>2022-05-08T13:26:13Z</time>
      </trkpt>
      <trkpt lat="44.86532" lon="5.70692">
        <ele>637.5</ele>
        <time>2022-05-08T13:26:31Z</time>
      </trkpt>
      <trkpt lat="44.86538" lon="5.70682">
        <ele>635.9</ele>
        <time>2022-05-08T13:26:47Z</time>
      </trkpt>
      <trkpt lat="44.86543" lon="5.70671">
        <ele>633.8</ele>
        <time>2022-05-08T13:27:05Z</time>
      </trkpt>
      <trkpt lat="44.86548" lon="5.70661">
        <ele>631.2</ele>
        <time>2022-05-08T13:27:32Z</time>
      </trkpt>
      <trkpt lat="44.86548" lon="5.70648">
        <ele>629</ele>
        <time>2022-05-08T13:27:52Z</time>
      </trkpt>
      <trkpt lat="44.86555" lon="5.70638">
        <ele>627.1</ele>
        <time>2022-05-08T13:28:11Z</time>
      </trkpt>
      <trkpt lat="44.86559" lon="5.70625">
        <ele>624.5</ele>
        <time>2022-05-08T13:28:33Z</time>
      </trkpt>
      <trkpt lat="44.86564" lon="5.70615">
        <ele>622.2</ele>
        <time>2022-05-08T13:28:55Z</time>
      </trkpt>
      <trkpt lat="44.86569" lon="5.70604">
        <ele>619.8</ele>
        <time>2022-05-08T13:29:22Z</time>
      </trkpt>
      <trkpt lat="44.86573" lon="5.70592">
        <ele>617.6</ele>
        <time>2022-05-08T13:29:46Z</time>
      </trkpt>
      <trkpt lat="44.86579" lon="5.70582">
        <ele>616.1</ele>
        <time>2022-05-08T13:30:07Z</time>
      </trkpt>
      <trkpt lat="44.86587" lon="5.70575">
        <ele>615</ele>
        <time>2022-05-08T13:30:25Z</time>
      </trkpt>
      <trkpt lat="44.86595" lon="5.70568">
        <ele>612.5</ele>
        <time>2022-05-08T13:30:45Z</time>
      </trkpt>
      <trkpt lat="44.86601" lon="5.70557">
        <ele>611.1</ele>
        <time>2022-05-08T13:31:01Z</time>
      </trkpt>
      <trkpt lat="44.86608" lon="5.7055">
        <ele>608.9</ele>
        <time>2022-05-08T13:31:19Z</time>
      </trkpt>
      <trkpt lat="44.86615" lon="5.7054">
        <ele>607.6</ele>
        <time>2022-05-08T13:31:34Z</time>
      </trkpt>
      <trkpt lat="44.86621" lon="5.7053">
        <ele>606.5</ele>
        <time>2022-05-08T13:31:48Z</time>
      </trkpt>
      <trkpt lat="44.8663" lon="5.70531">
        <ele>606</ele>
        <time>2022-05-08T13:31:59Z</time>
      </trkpt>
      <trkpt lat="44.86639" lon="5.70529">
        <ele>605.5</ele>
        <time>2022-05-08T13:32:09Z</time>
      </trkpt>
      <trkpt lat="44.86648" lon="5.70524">
        <ele>604.8</ele>
        <time>2022-05-08T13:32:23Z</time>
      </trkpt>
      <trkpt lat="44.86657" lon="5.70526">
        <ele>604.6</ele>
        <time>2022-05-08T13:32:34Z</time>
      </trkpt>
      <trkpt lat="44.86666" lon="5.70531">
        <ele>604.3</ele>
        <time>2022-05-08T13:32:44Z</time>
      </trkpt>
      <trkpt lat="44.86673" lon="5.70541">
        <ele>603.4</ele>
        <time>2022-05-08T13:32:56Z</time>
      </trkpt>
      <trkpt lat="44.86678" lon="5.70552">
        <ele>603.1</ele>
        <time>2022-05-08T13:33:04Z</time>
      </trkpt>
      <trkpt lat="44.86684" lon="5.70563">
        <ele>601.8</ele>
        <time>2022-05-08T13:33:15Z</time>
      </trkpt>
      <trkpt lat="44.86687" lon="5.70575">
        <ele>600.9</ele>
        <time>2022-05-08T13:33:28Z</time>
      </trkpt>
      <trkpt lat="44.86689" lon="5.70588">
        <ele>599.2</ele>
        <time>2022-05-08T13:33:54Z</time>
      </trkpt>
      <trkpt lat="44.86693" lon="5.706">
        <ele>597.9</ele>
        <time>2022-05-08T13:34:12Z</time>
      </trkpt>
      <trkpt lat="44.86696" lon="5.70612">
        <ele>596.4</ele>
        <time>2022-05-08T13:34:30Z</time>
      </trkpt>
      <trkpt lat="44.86699" lon="5.70625">
        <ele>594.8</ele>
        <time>2022-05-08T13:34:48Z</time>
      </trkpt>
      <trkpt lat="44.86703" lon="5.70638">
        <ele>592.4</ele>
        <time>2022-05-08T13:35:06Z</time>
      </trkpt>
      <trkpt lat="44.86706" lon="5.7065">
        <ele>591.1</ele>
        <time>2022-05-08T13:35:21Z</time>
      </trkpt>
      <trkpt lat="44.86707" lon="5.70663">
        <ele>589</ele>
        <time>2022-05-08T13:35:42Z</time>
      </trkpt>
      <trkpt lat="44.86711" lon="5.70675">
        <ele>587.5</ele>
        <time>2022-05-08T13:35:53Z</time>
      </trkpt>
      <trkpt lat="44.86717" lon="5.70686">
        <ele>585.8</ele>
        <time>2022-05-08T13:36:06Z</time>
      </trkpt>
      <trkpt lat="44.86715" lon="5.70699">
        <ele>583.1</ele>
        <time>2022-05-08T13:36:30Z</time>
      </trkpt>
      <trkpt lat="44.86717" lon="5.70686">
        <ele>579.3</ele>
        <time>2022-05-08T13:37:19Z</time>
      </trkpt>
      <trkpt lat="44.86716" lon="5.70673">
        <ele>579.1</ele>
        <time>2022-05-08T13:37:31Z</time>
      </trkpt>
      <trkpt lat="44.86713" lon="5.7066">
        <ele>578.9</ele>
        <time>2022-05-08T13:37:44Z</time>
      </trkpt>
      <trkpt lat="44.86714" lon="5.70647">
        <ele>578</ele>
        <time>2022-05-08T13:37:53Z</time>
      </trkpt>
      <trkpt lat="44.86715" lon="5.70634">
        <ele>578.1</ele>
        <time>2022-05-08T13:38:02Z</time>
      </trkpt>
      <trkpt lat="44.86716" lon="5.70621">
        <ele>578.5</ele>
        <time>2022-05-08T13:38:13Z</time>
      </trkpt>
      <trkpt lat="44.86717" lon="5.70609">
        <ele>578.2</ele>
        <time>2022-05-08T13:38:21Z</time>
      </trkpt>
      <trkpt lat="44.86724" lon="5.706">
        <ele>577.4</ele>
        <time>2022-05-08T13:38:34Z</time>
      </trkpt>
      <trkpt lat="44.86729" lon="5.7061">
        <ele>574.2</ele>
        <time>2022-05-08T13:39:05Z</time>
      </trkpt>
      <trkpt lat="44.86732" lon="5.70622">
        <ele>572.4</ele>
        <time>2022-05-08T13:39:24Z</time>
      </trkpt>
      <trkpt lat="44.86733" lon="5.70635">
        <ele>570.9</ele>
        <time>2022-05-08T13:39:42Z</time>
      </trkpt>
      <trkpt lat="44.86738" lon="5.70646">
        <ele>569.6</ele>
        <time>2022-05-08T13:39:56Z</time>
      </trkpt>
      <trkpt lat="44.86741" lon="5.70659">
        <ele>567</ele>
        <time>2022-05-08T13:40:24Z</time>
      </trkpt>
      <trkpt lat="44.86744" lon="5.70671">
        <ele>563.6</ele>
        <time>2022-05-08T13:41:02Z</time>
      </trkpt>
      <trkpt lat="44.86749" lon="5.70681">
        <ele>562.5</ele>
        <time>2022-05-08T13:41:16Z</time>
      </trkpt>
      <trkpt lat="44.86751" lon="5.70694">
        <ele>559.1</ele>
        <time>2022-05-08T13:42:16Z</time>
      </trkpt>
      <trkpt lat="44.86755" lon="5.70706">
        <ele>556.1</ele>
        <time>2022-05-08T13:43:33Z</time>
      </trkpt>
      <trkpt lat="44.86764" lon="5.70712">
        <ele>553.9</ele>
        <time>2022-05-08T13:43:55Z</time>
      </trkpt>
      <trkpt lat="44.86771" lon="5.70721">
        <ele>552.5</ele>
        <time>2022-05-08T13:44:13Z</time>
      </trkpt>
      <trkpt lat="44.86777" lon="5.7073">
        <ele>550.2</ele>
        <time>2022-05-08T13:44:35Z</time>
      </trkpt>
      <trkpt lat="44.8678" lon="5.70742">
        <ele>549.5</ele>
        <time>2022-05-08T13:45:00Z</time>
      </trkpt>
      <trkpt lat="44.86784" lon="5.70754">
        <ele>547.7</ele>
        <time>2022-05-08T13:45:21Z</time>
      </trkpt>
      <trkpt lat="44.86787" lon="5.70766">
        <ele>544.7</ele>
        <time>2022-05-08T13:46:04Z</time>
      </trkpt>
      <trkpt lat="44.86789" lon="5.70779">
        <ele>541.6</ele>
        <time>2022-05-08T13:46:42Z</time>
      </trkpt>
      <trkpt lat="44.86791" lon="5.70792">
        <ele>539.8</ele>
        <time>2022-05-08T13:47:35Z</time>
      </trkpt>
      <trkpt lat="44.868" lon="5.70795">
        <ele>537.5</ele>
        <time>2022-05-08T13:48:18Z</time>
      </trkpt>
      <trkpt lat="44.86809" lon="5.70799">
        <ele>536.3</ele>
        <time>2022-05-08T13:48:34Z</time>
      </trkpt>
      <trkpt lat="44.86817" lon="5.70806">
        <ele>535.2</ele>
        <time>2022-05-08T13:48:46Z</time>
      </trkpt>
      <trkpt lat="44.86825" lon="5.70812">
        <ele>534</ele>
        <time>2022-05-08T13:49:01Z</time>
      </trkpt>
      <trkpt lat="44.86833" lon="5.70818">
        <ele>534.1</ele>
        <time>2022-05-08T13:49:13Z</time>
      </trkpt>
      <trkpt lat="44.86841" lon="5.70826">
        <ele>533.1</ele>
        <time>2022-05-08T13:49:25Z</time>
      </trkpt>
      <trkpt lat="44.86849" lon="5.70834">
        <ele>533</ele>
        <time>2022-05-08T13:49:35Z</time>
      </trkpt>
      <trkpt lat="44.86857" lon="5.70841">
        <ele>532.6</ele>
        <time>2022-05-08T13:49:44Z</time>
      </trkpt>
      <trkpt lat="44.86865" lon="5.70848">
        <ele>532.5</ele>
        <time>2022-05-08T13:49:58Z</time>
      </trkpt>
      <trkpt lat="44.86873" lon="5.70854">
        <ele>532.5</ele>
        <time>2022-05-08T13:50:05Z</time>
      </trkpt>
      <trkpt lat="44.8688" lon="5.70861">
        <ele>532.8</ele>
        <time>2022-05-08T13:50:14Z</time>
      </trkpt>
      <trkpt lat="44.86888" lon="5.70868">
        <ele>532.9</ele>
        <time>2022-05-08T13:50:22Z</time>
      </trkpt>
      <trkpt lat="44.86897" lon="5.70876">
        <ele>533.7</ele>
        <time>2022-05-08T13:50:30Z</time>
      </trkpt>
      <trkpt lat="44.86904" lon="5.70882">
        <ele>534.3</ele>
        <time>2022-05-08T13:50:39Z</time>
      </trkpt>
      <trkpt lat="44.86912" lon="5.70891">
        <ele>536.2</ele>
        <time>2022-05-08T13:50:53Z</time>
      </trkpt>
      <trkpt lat="44.8692" lon="5.70898">
        <ele>536.8</ele>
        <time>2022-05-08T13:51:04Z</time>
      </trkpt>
      <trkpt lat="44.86927" lon="5.70904">
        <ele>536.7</ele>
        <time>2022-05-08T13:51:16Z</time>
      </trkpt>
      <trkpt lat="44.86935" lon="5.70911">
        <ele>537.5</ele>
        <time>2022-05-08T13:51:31Z</time>
      </trkpt>
      <trkpt lat="44.86943" lon="5.70918">
        <ele>538.6</ele>
        <time>2022-05-08T13:51:46Z</time>
      </trkpt>
      <trkpt lat="44.86951" lon="5.70925">
        <ele>539.9</ele>
        <time>2022-05-08T13:52:02Z</time>
      </trkpt>
      <trkpt lat="44.86958" lon="5.70931">
        <ele>541.8</ele>
        <time>2022-05-08T13:52:24Z</time>
      </trkpt>
      <trkpt lat="44.86967" lon="5.70937">
        <ele>543</ele>
        <time>2022-05-08T13:52:54Z</time>
      </trkpt>
      <trkpt lat="44.86975" lon="5.7094">
        <ele>546.1</ele>
        <time>2022-05-08T13:53:30Z</time>
      </trkpt>
      <trkpt lat="44.86984" lon="5.70942">
        <ele>547.4</ele>
        <time>2022-05-08T13:53:53Z</time>
      </trkpt>
      <trkpt lat="44.86993" lon="5.70941">
        <ele>546.9</ele>
        <time>2022-05-08T13:54:21Z</time>
      </trkpt>
      <trkpt lat="44.87001" lon="5.70934">
        <ele>543.6</ele>
        <time>2022-05-08T13:54:50Z</time>
      </trkpt>
      <trkpt lat="44.87005" lon="5.70922">
        <ele>541.9</ele>
        <time>2022-05-08T13:55:17Z</time>
      </trkpt>
      <trkpt lat="44.87011" lon="5.70911">
        <ele>540.2</ele>
        <time>2022-05-08T13:55:37Z</time>
      </trkpt>
      <trkpt lat="44.87015" lon="5.70899">
        <ele>538.7</ele>
        <time>2022-05-08T13:55:51Z</time>
      </trkpt>
      <trkpt lat="44.8702" lon="5.70888">
        <ele>537.9</ele>
        <time>2022-05-08T13:56:02Z</time>
      </trkpt>
      <trkpt lat="44.87024" lon="5.70876">
        <ele>537.8</ele>
        <time>2022-05-08T13:56:14Z</time>
      </trkpt>
      <trkpt lat="44.87024" lon="5.70863">
        <ele>538.2</ele>
        <time>2022-05-08T13:56:24Z</time>
      </trkpt>
      <trkpt lat="44.87028" lon="5.70851">
        <ele>539.9</ele>
        <time>2022-05-08T13:56:58Z</time>
      </trkpt>
      <trkpt lat="44.87034" lon="5.70841">
        <ele>538.1</ele>
        <time>2022-05-08T13:58:26Z</time>
      </trkpt>
      <trkpt lat="44.87041" lon="5.70833">
        <ele>537.1</ele>
        <time>2022-05-08T13:58:44Z</time>
      </trkpt>
      <trkpt lat="44.8705" lon="5.70827">
        <ele>536.1</ele>
        <time>2022-05-08T13:58:58Z</time>
      </trkpt>
      <trkpt lat="44.87059" lon="5.7083">
        <ele>535</ele>
        <time>2022-05-08T13:59:34Z</time>
      </trkpt>
      <trkpt lat="44.87066" lon="5.7084">
        <ele>534.7</ele>
        <time>2022-05-08T13:59:46Z</time>
      </trkpt>
      <trkpt lat="44.87074" lon="5.70846">
        <ele>534.2</ele>
        <time>2022-05-08T14:00:11Z</time>
      </trkpt>
      <trkpt lat="44.87083" lon="5.70847">
        <ele>534</ele>
        <time>2022-05-08T14:00:25Z</time>
      </trkpt>
      <trkpt lat="44.87092" lon="5.70851">
        <ele>533.4</ele>
        <time>2022-05-08T14:00:39Z</time>
      </trkpt>
      <trkpt lat="44.87101" lon="5.7085">
        <ele>533.5</ele>
        <time>2022-05-08T14:00:51Z</time>
      </trkpt>
      <trkpt lat="44.871" lon="5.70837">
        <ele>533</ele>
        <time>2022-05-08T14:01:13Z</time>
      </trkpt>
      <trkpt lat="44.87099" lon="5.70824">
        <ele>532.5</ele>
        <time>2022-05-08T14:01:24Z</time>
      </trkpt>
      <trkpt lat="44.87104" lon="5.70813">
        <ele>532.9</ele>
        <time>2022-05-08T14:01:34Z</time>
      </trkpt>
      <trkpt lat="44.87112" lon="5.70806">
        <ele>533.2</ele>
        <time>2022-05-08T14:01:43Z</time>
      </trkpt>
      <trkpt lat="44.8712" lon="5.70802">
        <ele>532.3</ele>
        <time>2022-05-08T14:01:53Z</time>
      </trkpt>
      <trkpt lat="44.87129" lon="5.70798">
        <ele>531.4</ele>
        <time>2022-05-08T14:02:03Z</time>
      </trkpt>
      <trkpt lat="44.87137" lon="5.70792">
        <ele>530.3</ele>
        <time>2022-05-08T14:02:15Z</time>
      </trkpt>
      <trkpt lat="44.87146" lon="5.7079">
        <ele>529.6</ele>
        <time>2022-05-08T14:02:26Z</time>
      </trkpt>
      <trkpt lat="44.87156" lon="5.70791">
        <ele>528.7</ele>
        <time>2022-05-08T14:02:35Z</time>
      </trkpt>
      <trkpt lat="44.87164" lon="5.70788">
        <ele>528.2</ele>
        <time>2022-05-08T14:02:54Z</time>
      </trkpt>
      <trkpt lat="44.87164" lon="5.70775">
        <ele>529.5</ele>
        <time>2022-05-08T14:03:11Z</time>
      </trkpt>
      <trkpt lat="44.87164" lon="5.70762">
        <ele>530.1</ele>
        <time>2022-05-08T14:03:25Z</time>
      </trkpt>
      <trkpt lat="44.87166" lon="5.70749">
        <ele>530.9</ele>
        <time>2022-05-08T14:03:37Z</time>
      </trkpt>
      <trkpt lat="44.87162" lon="5.70738">
        <ele>531.7</ele>
        <time>2022-05-08T14:03:51Z</time>
      </trkpt>
      <trkpt lat="44.87156" lon="5.70728">
        <ele>532.9</ele>
        <time>2022-05-08T14:04:05Z</time>
      </trkpt>
      <trkpt lat="44.87148" lon="5.70721">
        <ele>534.2</ele>
        <time>2022-05-08T14:04:22Z</time>
      </trkpt>
      <trkpt lat="44.87141" lon="5.70712">
        <ele>535.3</ele>
        <time>2022-05-08T14:04:37Z</time>
      </trkpt>
      <trkpt lat="44.87137" lon="5.70701">
        <ele>536.4</ele>
        <time>2022-05-08T14:04:51Z</time>
      </trkpt>
      <trkpt lat="44.87139" lon="5.70688">
        <ele>537</ele>
        <time>2022-05-08T14:05:05Z</time>
      </trkpt>
      <trkpt lat="44.87144" lon="5.70678">
        <ele>538.4</ele>
        <time>2022-05-08T14:05:20Z</time>
      </trkpt>
      <trkpt lat="44.8715" lon="5.70667">
        <ele>539.1</ele>
        <time>2022-05-08T14:05:35Z</time>
      </trkpt>
      <trkpt lat="44.87158" lon="5.7066">
        <ele>539.7</ele>
        <time>2022-05-08T14:05:52Z</time>
      </trkpt>
      <trkpt lat="44.87165" lon="5.70652">
        <ele>541.1</ele>
        <time>2022-05-08T14:06:07Z</time>
      </trkpt>
      <trkpt lat="44.87172" lon="5.70643">
        <ele>543.3</ele>
        <time>2022-05-08T14:06:22Z</time>
      </trkpt>
      <trkpt lat="44.87178" lon="5.70634">
        <ele>545.6</ele>
        <time>2022-05-08T14:06:43Z</time>
      </trkpt>
      <trkpt lat="44.87184" lon="5.70625">
        <ele>546.9</ele>
        <time>2022-05-08T14:06:59Z</time>
      </trkpt>
      <trkpt lat="44.87189" lon="5.70613">
        <ele>547.4</ele>
        <time>2022-05-08T14:07:12Z</time>
      </trkpt>
      <trkpt lat="44.87194" lon="5.70603">
        <ele>547.2</ele>
        <time>2022-05-08T14:07:24Z</time>
      </trkpt>
      <trkpt lat="44.87199" lon="5.70591">
        <ele>547.9</ele>
        <time>2022-05-08T14:07:36Z</time>
      </trkpt>
      <trkpt lat="44.87204" lon="5.7058">
        <ele>547.6</ele>
        <time>2022-05-08T14:07:50Z</time>
      </trkpt>
      <trkpt lat="44.87209" lon="5.70569">
        <ele>546.8</ele>
        <time>2022-05-08T14:08:06Z</time>
      </trkpt>
      <trkpt lat="44.87212" lon="5.70556">
        <ele>545.9</ele>
        <time>2022-05-08T14:08:16Z</time>
      </trkpt>
      <trkpt lat="44.87217" lon="5.70544">
        <ele>546</ele>
        <time>2022-05-08T14:08:26Z</time>
      </trkpt>
      <trkpt lat="44.87222" lon="5.70534">
        <ele>545.7</ele>
        <time>2022-05-08T14:08:37Z</time>
      </trkpt>
      <trkpt lat="44.87224" lon="5.7052">
        <ele>546.2</ele>
        <time>2022-05-08T14:08:49Z</time>
      </trkpt>
      <trkpt lat="44.8722" lon="5.70508">
        <ele>546.4</ele>
        <time>2022-05-08T14:09:02Z</time>
      </trkpt>
      <trkpt lat="44.87217" lon="5.70496">
        <ele>546.7</ele>
        <time>2022-05-08T14:09:12Z</time>
      </trkpt>
      <trkpt lat="44.87216" lon="5.70483">
        <ele>547.2</ele>
        <time>2022-05-08T14:09:22Z</time>
      </trkpt>
      <trkpt lat="44.87219" lon="5.70471">
        <ele>547.7</ele>
        <time>2022-05-08T14:09:31Z</time>
      </trkpt>
      <trkpt lat="44.87225" lon="5.7046">
        <ele>548.7</ele>
        <time>2022-05-08T14:09:42Z</time>
      </trkpt>
      <trkpt lat="44.87231" lon="5.70451">
        <ele>550</ele>
        <time>2022-05-08T14:09:55Z</time>
      </trkpt>
      <trkpt lat="44.87238" lon="5.70442">
        <ele>551.7</ele>
        <time>2022-05-08T14:10:19Z</time>
      </trkpt>
      <trkpt lat="44.87246" lon="5.70435">
        <ele>553.4</ele>
        <time>2022-05-08T14:10:35Z</time>
      </trkpt>
      <trkpt lat="44.87254" lon="5.70429">
        <ele>554.6</ele>
        <time>2022-05-08T14:10:48Z</time>
      </trkpt>
      <trkpt lat="44.87263" lon="5.70426">
        <ele>555.3</ele>
        <time>2022-05-08T14:11:09Z</time>
      </trkpt>
      <trkpt lat="44.87273" lon="5.70423">
        <ele>556.3</ele>
        <time>2022-05-08T14:11:23Z</time>
      </trkpt>
      <trkpt lat="44.87282" lon="5.70421">
        <ele>557.2</ele>
        <time>2022-05-08T14:11:37Z</time>
      </trkpt>
      <trkpt lat="44.87292" lon="5.7042">
        <ele>558.4</ele>
        <time>2022-05-08T14:11:51Z</time>
      </trkpt>
      <trkpt lat="44.87302" lon="5.70419">
        <ele>560.1</ele>
        <time>2022-05-08T14:12:07Z</time>
      </trkpt>
      <trkpt lat="44.87311" lon="5.70419">
        <ele>561.5</ele>
        <time>2022-05-08T14:12:22Z</time>
      </trkpt>
      <trkpt lat="44.8731" lon="5.70406">
        <ele>564.2</ele>
        <time>2022-05-08T14:12:47Z</time>
      </trkpt>
      <trkpt lat="44.87303" lon="5.70397">
        <ele>564.5</ele>
        <time>2022-05-08T14:13:01Z</time>
      </trkpt>
      <trkpt lat="44.873" lon="5.70385">
        <ele>564.4</ele>
        <time>2022-05-08T14:13:13Z</time>
      </trkpt>
      <trkpt lat="44.87296" lon="5.70373">
        <ele>564.3</ele>
        <time>2022-05-08T14:13:23Z</time>
      </trkpt>
      <trkpt lat="44.87293" lon="5.7036">
        <ele>563.9</ele>
        <time>2022-05-08T14:13:34Z</time>
      </trkpt>
      <trkpt lat="44.87288" lon="5.70348">
        <ele>563.1</ele>
        <time>2022-05-08T14:13:46Z</time>
      </trkpt>
      <trkpt lat="44.87283" lon="5.70337">
        <ele>562.8</ele>
        <time>2022-05-08T14:13:56Z</time>
      </trkpt>
      <trkpt lat="44.87277" lon="5.70327">
        <ele>562.6</ele>
        <time>2022-05-08T14:14:06Z</time>
      </trkpt>
      <trkpt lat="44.87271" lon="5.70317">
        <ele>562.2</ele>
        <time>2022-05-08T14:14:17Z</time>
      </trkpt>
      <trkpt lat="44.87266" lon="5.70307">
        <ele>562.5</ele>
        <time>2022-05-08T14:14:33Z</time>
      </trkpt>
      <trkpt lat="44.8726" lon="5.70295">
        <ele>562.3</ele>
        <time>2022-05-08T14:14:45Z</time>
      </trkpt>
      <trkpt lat="44.87256" lon="5.70284">
        <ele>562</ele>
        <time>2022-05-08T14:14:56Z</time>
      </trkpt>
      <trkpt lat="44.87251" lon="5.70272">
        <ele>561.6</ele>
        <time>2022-05-08T14:15:07Z</time>
      </trkpt>
      <trkpt lat="44.87247" lon="5.70261">
        <ele>561.2</ele>
        <time>2022-05-08T14:15:19Z</time>
      </trkpt>
      <trkpt lat="44.87244" lon="5.70248">
        <ele>561.1</ele>
        <time>2022-05-08T14:15:29Z</time>
      </trkpt>
      <trkpt lat="44.87242" lon="5.70235">
        <ele>560.9</ele>
        <time>2022-05-08T14:15:39Z</time>
      </trkpt>
      <trkpt lat="44.87242" lon="5.70222">
        <ele>560.2</ele>
        <time>2022-05-08T14:15:50Z</time>
      </trkpt>
      <trkpt lat="44.87241" lon="5.70209">
        <ele>560.3</ele>
        <time>2022-05-08T14:16:00Z</time>
      </trkpt>
      <trkpt lat="44.87241" lon="5.70196">
        <ele>560.1</ele>
        <time>2022-05-08T14:16:11Z</time>
      </trkpt>
      <trkpt lat="44.87239" lon="5.70182">
        <ele>559.9</ele>
        <time>2022-05-08T14:16:22Z</time>
      </trkpt>
      <trkpt lat="44.87238" lon="5.70169">
        <ele>559.7</ele>
        <time>2022-05-08T14:16:32Z</time>
      </trkpt>
      <trkpt lat="44.87235" lon="5.70156">
        <ele>559.7</ele>
        <time>2022-05-08T14:16:42Z</time>
      </trkpt>
      <trkpt lat="44.8723" lon="5.70144">
        <ele>559.6</ele>
        <time>2022-05-08T14:16:52Z</time>
      </trkpt>
      <trkpt lat="44.87227" lon="5.70131">
        <ele>559.4</ele>
        <time>2022-05-08T14:17:03Z</time>
      </trkpt>
      <trkpt lat="44.87223" lon="5.70119">
        <ele>559.6</ele>
        <time>2022-05-08T14:17:15Z</time>
      </trkpt>
      <trkpt lat="44.87218" lon="5.70106">
        <ele>559.7</ele>
        <time>2022-05-08T14:17:26Z</time>
      </trkpt>
      <trkpt lat="44.87213" lon="5.70095">
        <ele>559.7</ele>
        <time>2022-05-08T14:17:37Z</time>
      </trkpt>
      <trkpt lat="44.87208" lon="5.70084">
        <ele>560</ele>
        <time>2022-05-08T14:17:48Z</time>
      </trkpt>
      <trkpt lat="44.87203" lon="5.70073">
        <ele>560.1</ele>
        <time>2022-05-08T14:18:00Z</time>
      </trkpt>
      <trkpt lat="44.87202" lon="5.7006">
        <ele>559.6</ele>
        <time>2022-05-08T14:18:13Z</time>
      </trkpt>
      <trkpt lat="44.87209" lon="5.70051">
        <ele>559.8</ele>
        <time>2022-05-08T14:18:23Z</time>
      </trkpt>
      <trkpt lat="44.87218" lon="5.70047">
        <ele>559.9</ele>
        <time>2022-05-08T14:18:33Z</time>
      </trkpt>
      <trkpt lat="44.87228" lon="5.70047">
        <ele>559.6</ele>
        <time>2022-05-08T14:18:45Z</time>
      </trkpt>
      <trkpt lat="44.87237" lon="5.70045">
        <ele>559.5</ele>
        <time>2022-05-08T14:19:01Z</time>
      </trkpt>
      <trkpt lat="44.87247" lon="5.70043">
        <ele>559.9</ele>
        <time>2022-05-08T14:19:30Z</time>
      </trkpt>
      <trkpt lat="44.87256" lon="5.70041">
        <ele>560.2</ele>
        <time>2022-05-08T14:19:41Z</time>
      </trkpt>
      <trkpt lat="44.87265" lon="5.70042">
        <ele>560.4</ele>
        <time>2022-05-08T14:19:51Z</time>
      </trkpt>
      <trkpt lat="44.87275" lon="5.7004">
        <ele>560.8</ele>
        <time>2022-05-08T14:20:01Z</time>
      </trkpt>
      <trkpt lat="44.87284" lon="5.70041">
        <ele>561.5</ele>
        <time>2022-05-08T14:20:11Z</time>
      </trkpt>
      <trkpt lat="44.87293" lon="5.70041">
        <ele>561.9</ele>
        <time>2022-05-08T14:20:21Z</time>
      </trkpt>
      <trkpt lat="44.87302" lon="5.7004">
        <ele>562.6</ele>
        <time>2022-05-08T14:20:32Z</time>
      </trkpt>
      <trkpt lat="44.87312" lon="5.70039">
        <ele>563.3</ele>
        <time>2022-05-08T14:20:43Z</time>
      </trkpt>
      <trkpt lat="44.87322" lon="5.70039">
        <ele>563.4</ele>
        <time>2022-05-08T14:20:55Z</time>
      </trkpt>
      <trkpt lat="44.87331" lon="5.70039">
        <ele>564.2</ele>
        <time>2022-05-08T14:21:06Z</time>
      </trkpt>
      <trkpt lat="44.87341" lon="5.70039">
        <ele>564.9</ele>
        <time>2022-05-08T14:21:17Z</time>
      </trkpt>
      <trkpt lat="44.8735" lon="5.70041">
        <ele>565.9</ele>
        <time>2022-05-08T14:21:31Z</time>
      </trkpt>
      <trkpt lat="44.87342" lon="5.70049">
        <ele>567.7</ele>
        <time>2022-05-08T14:21:56Z</time>
      </trkpt>
      <trkpt lat="44.87334" lon="5.70053">
        <ele>569</ele>
        <time>2022-05-08T14:22:16Z</time>
      </trkpt>
      <trkpt lat="44.87324" lon="5.70056">
        <ele>570.1</ele>
        <time>2022-05-08T14:22:30Z</time>
      </trkpt>
      <trkpt lat="44.87315" lon="5.70059">
        <ele>571.4</ele>
        <time>2022-05-08T14:22:43Z</time>
      </trkpt>
      <trkpt lat="44.87306" lon="5.70062">
        <ele>572.2</ele>
        <time>2022-05-08T14:22:55Z</time>
      </trkpt>
      <trkpt lat="44.87298" lon="5.70068">
        <ele>572.5</ele>
        <time>2022-05-08T14:23:05Z</time>
      </trkpt>
      <trkpt lat="44.8729" lon="5.70074">
        <ele>572.7</ele>
        <time>2022-05-08T14:23:14Z</time>
      </trkpt>
      <trkpt lat="44.87286" lon="5.70086">
        <ele>573.7</ele>
        <time>2022-05-08T14:23:25Z</time>
      </trkpt>
      <trkpt lat="44.87291" lon="5.70096">
        <ele>573.9</ele>
        <time>2022-05-08T14:23:37Z</time>
      </trkpt>
      <trkpt lat="44.8729" lon="5.70103">
        <ele>574.1</ele>
        <time>2022-05-08T14:26:57Z</time>
      </trkpt>
    </trkseg>
  </trk>
</gpx>